<?xml version="1.0" encoding="UTF-8" standalone="no" ?>
<gpx xmlns="http://www.topografix.com/GPX/1/1" xmlns:xsi="http://www.w3.org/2001/XMLSchema-instance" xsi:schemaLocation="http://www.topografix.com/GPX/1/1 http://www.topografix.com/GPX/1/1/gpx.xsd" version="1.1" creator="VisuGPX - https://www.visugpx.com">
  <metadata>
    <name>Trail : Le Sialet</name>
    <desc><![CDATA[10Km , 1h28]]></desc>
  </metadata>
  <trk>
    <name><![CDATA[2012-05-03-01]]></name>
    <trkseg>
      <trkpt lat="45.22845" lon="5.68795">
        <ele>203</ele>
        <time>2012-05-03T13:46:31Z</time>
      </trkpt>
      <trkpt lat="45.22851" lon="5.68801">
        <ele>208</ele>
        <time>2012-05-03T13:47:14Z</time>
      </trkpt>
      <trkpt lat="45.22859" lon="5.68808">
        <ele>210</ele>
        <time>2012-05-03T13:47:17Z</time>
      </trkpt>
      <trkpt lat="45.22864" lon="5.68813">
        <ele>211</ele>
        <time>2012-05-03T13:47:18Z</time>
      </trkpt>
      <trkpt lat="45.22869" lon="5.68819">
        <ele>211</ele>
        <time>2012-05-03T13:47:20Z</time>
      </trkpt>
      <trkpt lat="45.22875" lon="5.68829">
        <ele>211</ele>
        <time>2012-05-03T13:47:23Z</time>
      </trkpt>
      <trkpt lat="45.22879" lon="5.68838">
        <ele>211</ele>
        <time>2012-05-03T13:47:26Z</time>
      </trkpt>
      <trkpt lat="45.22881" lon="5.68841">
        <ele>210</ele>
        <time>2012-05-03T13:47:27Z</time>
      </trkpt>
      <trkpt lat="45.22889" lon="5.68855">
        <ele>211</ele>
        <time>2012-05-03T13:47:31Z</time>
      </trkpt>
      <trkpt lat="45.22894" lon="5.6886">
        <ele>211</ele>
        <time>2012-05-03T13:47:33Z</time>
      </trkpt>
      <trkpt lat="45.22902" lon="5.68865">
        <ele>212</ele>
        <time>2012-05-03T13:47:37Z</time>
      </trkpt>
      <trkpt lat="45.22908" lon="5.68862">
        <ele>218</ele>
        <time>2012-05-03T13:47:39Z</time>
      </trkpt>
      <trkpt lat="45.22913" lon="5.68853">
        <ele>212</ele>
        <time>2012-05-03T13:47:41Z</time>
      </trkpt>
      <trkpt lat="45.22917" lon="5.68844">
        <ele>215</ele>
        <time>2012-05-03T13:47:45Z</time>
      </trkpt>
      <trkpt lat="45.22922" lon="5.68834">
        <ele>212</ele>
        <time>2012-05-03T13:47:48Z</time>
      </trkpt>
      <trkpt lat="45.22925" lon="5.68828">
        <ele>211</ele>
        <time>2012-05-03T13:47:50Z</time>
      </trkpt>
      <trkpt lat="45.2293" lon="5.68819">
        <ele>207</ele>
        <time>2012-05-03T13:47:52Z</time>
      </trkpt>
      <trkpt lat="45.22935" lon="5.68812">
        <ele>208</ele>
        <time>2012-05-03T13:47:55Z</time>
      </trkpt>
      <trkpt lat="45.22939" lon="5.68804">
        <ele>206</ele>
        <time>2012-05-03T13:47:57Z</time>
      </trkpt>
      <trkpt lat="45.22943" lon="5.68796">
        <ele>206</ele>
        <time>2012-05-03T13:47:59Z</time>
      </trkpt>
      <trkpt lat="45.22947" lon="5.68789">
        <ele>206</ele>
        <time>2012-05-03T13:48:01Z</time>
      </trkpt>
      <trkpt lat="45.22951" lon="5.68777">
        <ele>207</ele>
        <time>2012-05-03T13:48:03Z</time>
      </trkpt>
      <trkpt lat="45.22953" lon="5.68766">
        <ele>203</ele>
        <time>2012-05-03T13:48:07Z</time>
      </trkpt>
      <trkpt lat="45.22955" lon="5.68755">
        <ele>203</ele>
        <time>2012-05-03T13:48:11Z</time>
      </trkpt>
      <trkpt lat="45.22959" lon="5.68748">
        <ele>204</ele>
        <time>2012-05-03T13:48:13Z</time>
      </trkpt>
      <trkpt lat="45.22963" lon="5.68741">
        <ele>205</ele>
        <time>2012-05-03T13:48:15Z</time>
      </trkpt>
      <trkpt lat="45.22969" lon="5.68732">
        <ele>205</ele>
        <time>2012-05-03T13:48:17Z</time>
      </trkpt>
      <trkpt lat="45.22972" lon="5.68721">
        <ele>208</ele>
        <time>2012-05-03T13:48:20Z</time>
      </trkpt>
      <trkpt lat="45.22973" lon="5.6871">
        <ele>209</ele>
        <time>2012-05-03T13:48:23Z</time>
      </trkpt>
      <trkpt lat="45.22976" lon="5.687">
        <ele>210</ele>
        <time>2012-05-03T13:48:25Z</time>
      </trkpt>
      <trkpt lat="45.22981" lon="5.68691">
        <ele>207</ele>
        <time>2012-05-03T13:48:27Z</time>
      </trkpt>
      <trkpt lat="45.22982" lon="5.68686">
        <ele>208</ele>
        <time>2012-05-03T13:48:29Z</time>
      </trkpt>
      <trkpt lat="45.22984" lon="5.68673">
        <ele>209</ele>
        <time>2012-05-03T13:48:31Z</time>
      </trkpt>
      <trkpt lat="45.22987" lon="5.68664">
        <ele>207</ele>
        <time>2012-05-03T13:48:34Z</time>
      </trkpt>
      <trkpt lat="45.2299" lon="5.68656">
        <ele>209</ele>
        <time>2012-05-03T13:48:35Z</time>
      </trkpt>
      <trkpt lat="45.22993" lon="5.68648">
        <ele>209</ele>
        <time>2012-05-03T13:48:37Z</time>
      </trkpt>
      <trkpt lat="45.22999" lon="5.68638">
        <ele>209</ele>
        <time>2012-05-03T13:48:41Z</time>
      </trkpt>
      <trkpt lat="45.23" lon="5.68628">
        <ele>210</ele>
        <time>2012-05-03T13:48:43Z</time>
      </trkpt>
      <trkpt lat="45.23003" lon="5.68618">
        <ele>213</ele>
        <time>2012-05-03T13:48:47Z</time>
      </trkpt>
      <trkpt lat="45.23009" lon="5.6861">
        <ele>213</ele>
        <time>2012-05-03T13:48:50Z</time>
      </trkpt>
      <trkpt lat="45.2301" lon="5.68598">
        <ele>212</ele>
        <time>2012-05-03T13:48:53Z</time>
      </trkpt>
      <trkpt lat="45.23016" lon="5.6859">
        <ele>214</ele>
        <time>2012-05-03T13:48:55Z</time>
      </trkpt>
      <trkpt lat="45.23021" lon="5.68583">
        <ele>216</ele>
        <time>2012-05-03T13:48:57Z</time>
      </trkpt>
      <trkpt lat="45.23028" lon="5.68577">
        <ele>217</ele>
        <time>2012-05-03T13:48:59Z</time>
      </trkpt>
      <trkpt lat="45.23032" lon="5.68574">
        <ele>217</ele>
        <time>2012-05-03T13:49:00Z</time>
      </trkpt>
      <trkpt lat="45.23039" lon="5.68567">
        <ele>215</ele>
        <time>2012-05-03T13:49:03Z</time>
      </trkpt>
      <trkpt lat="45.23042" lon="5.68559">
        <ele>215</ele>
        <time>2012-05-03T13:49:06Z</time>
      </trkpt>
      <trkpt lat="45.23046" lon="5.68551">
        <ele>217</ele>
        <time>2012-05-03T13:49:07Z</time>
      </trkpt>
      <trkpt lat="45.23053" lon="5.68544">
        <ele>217</ele>
        <time>2012-05-03T13:49:09Z</time>
      </trkpt>
      <trkpt lat="45.23058" lon="5.68537">
        <ele>218</ele>
        <time>2012-05-03T13:49:11Z</time>
      </trkpt>
      <trkpt lat="45.23063" lon="5.68531">
        <ele>218</ele>
        <time>2012-05-03T13:49:13Z</time>
      </trkpt>
      <trkpt lat="45.23068" lon="5.68525">
        <ele>218</ele>
        <time>2012-05-03T13:49:15Z</time>
      </trkpt>
      <trkpt lat="45.23074" lon="5.68516">
        <ele>213</ele>
        <time>2012-05-03T13:49:19Z</time>
      </trkpt>
      <trkpt lat="45.23078" lon="5.68507">
        <ele>214</ele>
        <time>2012-05-03T13:49:22Z</time>
      </trkpt>
      <trkpt lat="45.23083" lon="5.68499">
        <ele>211</ele>
        <time>2012-05-03T13:49:24Z</time>
      </trkpt>
      <trkpt lat="45.23087" lon="5.68494">
        <ele>211</ele>
        <time>2012-05-03T13:49:27Z</time>
      </trkpt>
      <trkpt lat="45.23092" lon="5.68487">
        <ele>212</ele>
        <time>2012-05-03T13:49:29Z</time>
      </trkpt>
      <trkpt lat="45.23094" lon="5.68484">
        <ele>213</ele>
        <time>2012-05-03T13:49:30Z</time>
      </trkpt>
      <trkpt lat="45.23102" lon="5.6847">
        <ele>217</ele>
        <time>2012-05-03T13:49:35Z</time>
      </trkpt>
      <trkpt lat="45.23107" lon="5.68462">
        <ele>219</ele>
        <time>2012-05-03T13:49:36Z</time>
      </trkpt>
      <trkpt lat="45.23112" lon="5.68456">
        <ele>220</ele>
        <time>2012-05-03T13:49:39Z</time>
      </trkpt>
      <trkpt lat="45.23118" lon="5.68451">
        <ele>217</ele>
        <time>2012-05-03T13:49:46Z</time>
      </trkpt>
      <trkpt lat="45.23122" lon="5.68443">
        <ele>216</ele>
        <time>2012-05-03T13:49:48Z</time>
      </trkpt>
      <trkpt lat="45.23128" lon="5.68434">
        <ele>216</ele>
        <time>2012-05-03T13:49:51Z</time>
      </trkpt>
      <trkpt lat="45.23133" lon="5.68427">
        <ele>215</ele>
        <time>2012-05-03T13:49:54Z</time>
      </trkpt>
      <trkpt lat="45.2314" lon="5.68422">
        <ele>216</ele>
        <time>2012-05-03T13:49:56Z</time>
      </trkpt>
      <trkpt lat="45.23146" lon="5.68429">
        <ele>213</ele>
        <time>2012-05-03T13:50:00Z</time>
      </trkpt>
      <trkpt lat="45.23149" lon="5.68436">
        <ele>213</ele>
        <time>2012-05-03T13:50:03Z</time>
      </trkpt>
      <trkpt lat="45.23153" lon="5.68446">
        <ele>212</ele>
        <time>2012-05-03T13:50:05Z</time>
      </trkpt>
      <trkpt lat="45.23157" lon="5.68454">
        <ele>212</ele>
        <time>2012-05-03T13:50:06Z</time>
      </trkpt>
      <trkpt lat="45.23162" lon="5.68461">
        <ele>212</ele>
        <time>2012-05-03T13:50:08Z</time>
      </trkpt>
      <trkpt lat="45.23166" lon="5.68468">
        <ele>215</ele>
        <time>2012-05-03T13:50:10Z</time>
      </trkpt>
      <trkpt lat="45.23173" lon="5.68474">
        <ele>215</ele>
        <time>2012-05-03T13:50:13Z</time>
      </trkpt>
      <trkpt lat="45.23181" lon="5.68477">
        <ele>217</ele>
        <time>2012-05-03T13:50:17Z</time>
      </trkpt>
      <trkpt lat="45.23188" lon="5.68476">
        <ele>219</ele>
        <time>2012-05-03T13:50:19Z</time>
      </trkpt>
      <trkpt lat="45.23194" lon="5.68475">
        <ele>219</ele>
        <time>2012-05-03T13:50:20Z</time>
      </trkpt>
      <trkpt lat="45.23203" lon="5.68477">
        <ele>220</ele>
        <time>2012-05-03T13:50:23Z</time>
      </trkpt>
      <trkpt lat="45.23209" lon="5.68485">
        <ele>216</ele>
        <time>2012-05-03T13:50:26Z</time>
      </trkpt>
      <trkpt lat="45.23215" lon="5.68493">
        <ele>213</ele>
        <time>2012-05-03T13:50:29Z</time>
      </trkpt>
      <trkpt lat="45.23221" lon="5.68501">
        <ele>214</ele>
        <time>2012-05-03T13:50:32Z</time>
      </trkpt>
      <trkpt lat="45.23223" lon="5.68503">
        <ele>213</ele>
        <time>2012-05-03T13:50:34Z</time>
      </trkpt>
      <trkpt lat="45.23233" lon="5.68514">
        <ele>214</ele>
        <time>2012-05-03T13:50:38Z</time>
      </trkpt>
      <trkpt lat="45.23238" lon="5.68522">
        <ele>213</ele>
        <time>2012-05-03T13:50:41Z</time>
      </trkpt>
      <trkpt lat="45.23242" lon="5.68531">
        <ele>214</ele>
        <time>2012-05-03T13:50:44Z</time>
      </trkpt>
      <trkpt lat="45.23247" lon="5.68537">
        <ele>216</ele>
        <time>2012-05-03T13:50:47Z</time>
      </trkpt>
      <trkpt lat="45.23253" lon="5.68542">
        <ele>217</ele>
        <time>2012-05-03T13:50:49Z</time>
      </trkpt>
      <trkpt lat="45.23259" lon="5.68548">
        <ele>214</ele>
        <time>2012-05-03T13:50:51Z</time>
      </trkpt>
      <trkpt lat="45.23266" lon="5.68552">
        <ele>214</ele>
        <time>2012-05-03T13:50:53Z</time>
      </trkpt>
      <trkpt lat="45.23273" lon="5.68555">
        <ele>215</ele>
        <time>2012-05-03T13:50:55Z</time>
      </trkpt>
      <trkpt lat="45.2328" lon="5.68558">
        <ele>215</ele>
        <time>2012-05-03T13:50:58Z</time>
      </trkpt>
      <trkpt lat="45.23284" lon="5.6856">
        <ele>215</ele>
        <time>2012-05-03T13:50:58Z</time>
      </trkpt>
      <trkpt lat="45.23288" lon="5.68565">
        <ele>216</ele>
        <time>2012-05-03T13:50:59Z</time>
      </trkpt>
      <trkpt lat="45.23294" lon="5.68571">
        <ele>216</ele>
        <time>2012-05-03T13:51:01Z</time>
      </trkpt>
      <trkpt lat="45.23298" lon="5.68579">
        <ele>220</ele>
        <time>2012-05-03T13:51:03Z</time>
      </trkpt>
      <trkpt lat="45.23304" lon="5.68587">
        <ele>220</ele>
        <time>2012-05-03T13:51:07Z</time>
      </trkpt>
      <trkpt lat="45.23311" lon="5.68592">
        <ele>220</ele>
        <time>2012-05-03T13:51:11Z</time>
      </trkpt>
      <trkpt lat="45.23318" lon="5.68597">
        <ele>222</ele>
        <time>2012-05-03T13:51:14Z</time>
      </trkpt>
      <trkpt lat="45.23323" lon="5.68602">
        <ele>221</ele>
        <time>2012-05-03T13:51:16Z</time>
      </trkpt>
      <trkpt lat="45.2333" lon="5.68611">
        <ele>220</ele>
        <time>2012-05-03T13:51:19Z</time>
      </trkpt>
      <trkpt lat="45.23336" lon="5.68616">
        <ele>221</ele>
        <time>2012-05-03T13:51:22Z</time>
      </trkpt>
      <trkpt lat="45.23343" lon="5.68622">
        <ele>220</ele>
        <time>2012-05-03T13:51:25Z</time>
      </trkpt>
      <trkpt lat="45.2335" lon="5.68628">
        <ele>219</ele>
        <time>2012-05-03T13:51:28Z</time>
      </trkpt>
      <trkpt lat="45.23354" lon="5.68634">
        <ele>220</ele>
        <time>2012-05-03T13:51:30Z</time>
      </trkpt>
      <trkpt lat="45.23359" lon="5.6864">
        <ele>222</ele>
        <time>2012-05-03T13:51:32Z</time>
      </trkpt>
      <trkpt lat="45.23365" lon="5.68645">
        <ele>223</ele>
        <time>2012-05-03T13:51:34Z</time>
      </trkpt>
      <trkpt lat="45.23368" lon="5.68648">
        <ele>222</ele>
        <time>2012-05-03T13:51:35Z</time>
      </trkpt>
      <trkpt lat="45.23376" lon="5.68656">
        <ele>221</ele>
        <time>2012-05-03T13:51:38Z</time>
      </trkpt>
      <trkpt lat="45.23381" lon="5.6866">
        <ele>222</ele>
        <time>2012-05-03T13:51:41Z</time>
      </trkpt>
      <trkpt lat="45.23389" lon="5.68661">
        <ele>222</ele>
        <time>2012-05-03T13:51:42Z</time>
      </trkpt>
      <trkpt lat="45.23397" lon="5.68666">
        <ele>222</ele>
        <time>2012-05-03T13:51:45Z</time>
      </trkpt>
      <trkpt lat="45.23404" lon="5.68671">
        <ele>222</ele>
        <time>2012-05-03T13:51:47Z</time>
      </trkpt>
      <trkpt lat="45.23408" lon="5.68675">
        <ele>222</ele>
        <time>2012-05-03T13:51:48Z</time>
      </trkpt>
      <trkpt lat="45.23413" lon="5.68678">
        <ele>223</ele>
        <time>2012-05-03T13:51:49Z</time>
      </trkpt>
      <trkpt lat="45.23417" lon="5.68681">
        <ele>223</ele>
        <time>2012-05-03T13:51:50Z</time>
      </trkpt>
      <trkpt lat="45.23425" lon="5.68688">
        <ele>223</ele>
        <time>2012-05-03T13:51:52Z</time>
      </trkpt>
      <trkpt lat="45.23429" lon="5.68695">
        <ele>221</ele>
        <time>2012-05-03T13:51:54Z</time>
      </trkpt>
      <trkpt lat="45.23433" lon="5.68701">
        <ele>222</ele>
        <time>2012-05-03T13:51:56Z</time>
      </trkpt>
      <trkpt lat="45.23437" lon="5.68707">
        <ele>222</ele>
        <time>2012-05-03T13:51:58Z</time>
      </trkpt>
      <trkpt lat="45.23442" lon="5.68714">
        <ele>222</ele>
        <time>2012-05-03T13:52:00Z</time>
      </trkpt>
      <trkpt lat="45.23446" lon="5.68721">
        <ele>222</ele>
        <time>2012-05-03T13:52:03Z</time>
      </trkpt>
      <trkpt lat="45.23451" lon="5.68726">
        <ele>221</ele>
        <time>2012-05-03T13:52:04Z</time>
      </trkpt>
      <trkpt lat="45.2346" lon="5.6873">
        <ele>223</ele>
        <time>2012-05-03T13:52:07Z</time>
      </trkpt>
      <trkpt lat="45.23467" lon="5.68732">
        <ele>221</ele>
        <time>2012-05-03T13:52:11Z</time>
      </trkpt>
      <trkpt lat="45.23473" lon="5.68739">
        <ele>222</ele>
        <time>2012-05-03T13:52:14Z</time>
      </trkpt>
      <trkpt lat="45.2348" lon="5.68746">
        <ele>222</ele>
        <time>2012-05-03T13:52:17Z</time>
      </trkpt>
      <trkpt lat="45.23488" lon="5.68751">
        <ele>222</ele>
        <time>2012-05-03T13:52:20Z</time>
      </trkpt>
      <trkpt lat="45.23492" lon="5.68759">
        <ele>215</ele>
        <time>2012-05-03T13:52:22Z</time>
      </trkpt>
      <trkpt lat="45.23496" lon="5.68766">
        <ele>213</ele>
        <time>2012-05-03T13:52:24Z</time>
      </trkpt>
      <trkpt lat="45.23497" lon="5.68772">
        <ele>212</ele>
        <time>2012-05-03T13:52:26Z</time>
      </trkpt>
      <trkpt lat="45.23498" lon="5.6878">
        <ele>214</ele>
        <time>2012-05-03T13:52:26Z</time>
      </trkpt>
      <trkpt lat="45.23503" lon="5.6879">
        <ele>215</ele>
        <time>2012-05-03T13:52:28Z</time>
      </trkpt>
      <trkpt lat="45.23509" lon="5.68797">
        <ele>217</ele>
        <time>2012-05-03T13:52:30Z</time>
      </trkpt>
      <trkpt lat="45.23516" lon="5.68802">
        <ele>217</ele>
        <time>2012-05-03T13:52:33Z</time>
      </trkpt>
      <trkpt lat="45.23523" lon="5.68807">
        <ele>214</ele>
        <time>2012-05-03T13:52:37Z</time>
      </trkpt>
      <trkpt lat="45.23525" lon="5.68808">
        <ele>214</ele>
        <time>2012-05-03T13:52:39Z</time>
      </trkpt>
      <trkpt lat="45.23536" lon="5.68814">
        <ele>217</ele>
        <time>2012-05-03T13:52:43Z</time>
      </trkpt>
      <trkpt lat="45.23542" lon="5.68818">
        <ele>215</ele>
        <time>2012-05-03T13:52:46Z</time>
      </trkpt>
      <trkpt lat="45.23548" lon="5.6882">
        <ele>215</ele>
        <time>2012-05-03T13:52:47Z</time>
      </trkpt>
      <trkpt lat="45.23554" lon="5.68823">
        <ele>217</ele>
        <time>2012-05-03T13:52:49Z</time>
      </trkpt>
      <trkpt lat="45.23558" lon="5.68829">
        <ele>219</ele>
        <time>2012-05-03T13:52:51Z</time>
      </trkpt>
      <trkpt lat="45.23563" lon="5.68837">
        <ele>219</ele>
        <time>2012-05-03T13:52:53Z</time>
      </trkpt>
      <trkpt lat="45.23567" lon="5.68846">
        <ele>220</ele>
        <time>2012-05-03T13:52:55Z</time>
      </trkpt>
      <trkpt lat="45.23574" lon="5.68854">
        <ele>220</ele>
        <time>2012-05-03T13:52:58Z</time>
      </trkpt>
      <trkpt lat="45.23579" lon="5.68858">
        <ele>220</ele>
        <time>2012-05-03T13:53:01Z</time>
      </trkpt>
      <trkpt lat="45.23584" lon="5.68863">
        <ele>219</ele>
        <time>2012-05-03T13:53:02Z</time>
      </trkpt>
      <trkpt lat="45.2359" lon="5.68867">
        <ele>218</ele>
        <time>2012-05-03T13:53:04Z</time>
      </trkpt>
      <trkpt lat="45.23597" lon="5.68872">
        <ele>216</ele>
        <time>2012-05-03T13:53:07Z</time>
      </trkpt>
      <trkpt lat="45.23605" lon="5.68875">
        <ele>216</ele>
        <time>2012-05-03T13:53:10Z</time>
      </trkpt>
      <trkpt lat="45.23612" lon="5.68881">
        <ele>217</ele>
        <time>2012-05-03T13:53:14Z</time>
      </trkpt>
      <trkpt lat="45.2362" lon="5.68886">
        <ele>216</ele>
        <time>2012-05-03T13:53:18Z</time>
      </trkpt>
      <trkpt lat="45.23627" lon="5.68893">
        <ele>218</ele>
        <time>2012-05-03T13:53:21Z</time>
      </trkpt>
      <trkpt lat="45.23632" lon="5.68899">
        <ele>219</ele>
        <time>2012-05-03T13:53:23Z</time>
      </trkpt>
      <trkpt lat="45.23638" lon="5.68906">
        <ele>220</ele>
        <time>2012-05-03T13:53:26Z</time>
      </trkpt>
      <trkpt lat="45.23643" lon="5.68912">
        <ele>219</ele>
        <time>2012-05-03T13:53:28Z</time>
      </trkpt>
      <trkpt lat="45.23648" lon="5.68917">
        <ele>219</ele>
        <time>2012-05-03T13:53:30Z</time>
      </trkpt>
      <trkpt lat="45.23654" lon="5.68922">
        <ele>220</ele>
        <time>2012-05-03T13:53:32Z</time>
      </trkpt>
      <trkpt lat="45.23661" lon="5.68927">
        <ele>223</ele>
        <time>2012-05-03T13:53:35Z</time>
      </trkpt>
      <trkpt lat="45.23665" lon="5.68933">
        <ele>224</ele>
        <time>2012-05-03T13:53:38Z</time>
      </trkpt>
      <trkpt lat="45.23669" lon="5.68937">
        <ele>222</ele>
        <time>2012-05-03T13:53:39Z</time>
      </trkpt>
      <trkpt lat="45.23677" lon="5.68947">
        <ele>225</ele>
        <time>2012-05-03T13:53:43Z</time>
      </trkpt>
      <trkpt lat="45.23684" lon="5.68951">
        <ele>224</ele>
        <time>2012-05-03T13:53:46Z</time>
      </trkpt>
      <trkpt lat="45.23691" lon="5.68953">
        <ele>225</ele>
        <time>2012-05-03T13:53:48Z</time>
      </trkpt>
      <trkpt lat="45.23698" lon="5.68955">
        <ele>227</ele>
        <time>2012-05-03T13:53:50Z</time>
      </trkpt>
      <trkpt lat="45.23705" lon="5.68957">
        <ele>230</ele>
        <time>2012-05-03T13:53:52Z</time>
      </trkpt>
      <trkpt lat="45.23712" lon="5.68957">
        <ele>226</ele>
        <time>2012-05-03T13:53:55Z</time>
      </trkpt>
      <trkpt lat="45.23718" lon="5.68957">
        <ele>224</ele>
        <time>2012-05-03T13:53:57Z</time>
      </trkpt>
      <trkpt lat="45.23725" lon="5.68957">
        <ele>224</ele>
        <time>2012-05-03T13:53:58Z</time>
      </trkpt>
      <trkpt lat="45.23732" lon="5.68954">
        <ele>225</ele>
        <time>2012-05-03T13:54:00Z</time>
      </trkpt>
      <trkpt lat="45.23741" lon="5.68952">
        <ele>226</ele>
        <time>2012-05-03T13:54:03Z</time>
      </trkpt>
      <trkpt lat="45.23748" lon="5.68952">
        <ele>226</ele>
        <time>2012-05-03T13:54:06Z</time>
      </trkpt>
      <trkpt lat="45.23752" lon="5.68952">
        <ele>228</ele>
        <time>2012-05-03T13:54:07Z</time>
      </trkpt>
      <trkpt lat="45.23761" lon="5.68952">
        <ele>227</ele>
        <time>2012-05-03T13:54:09Z</time>
      </trkpt>
      <trkpt lat="45.23768" lon="5.68952">
        <ele>226</ele>
        <time>2012-05-03T13:54:11Z</time>
      </trkpt>
      <trkpt lat="45.23776" lon="5.68956">
        <ele>227</ele>
        <time>2012-05-03T13:54:15Z</time>
      </trkpt>
      <trkpt lat="45.23782" lon="5.68964">
        <ele>228</ele>
        <time>2012-05-03T13:54:18Z</time>
      </trkpt>
      <trkpt lat="45.2379" lon="5.68967">
        <ele>226</ele>
        <time>2012-05-03T13:54:21Z</time>
      </trkpt>
      <trkpt lat="45.23799" lon="5.6897">
        <ele>227</ele>
        <time>2012-05-03T13:54:25Z</time>
      </trkpt>
      <trkpt lat="45.23804" lon="5.68973">
        <ele>222</ele>
        <time>2012-05-03T13:54:27Z</time>
      </trkpt>
      <trkpt lat="45.23813" lon="5.68977">
        <ele>219</ele>
        <time>2012-05-03T13:54:30Z</time>
      </trkpt>
      <trkpt lat="45.23821" lon="5.68973">
        <ele>221</ele>
        <time>2012-05-03T13:54:32Z</time>
      </trkpt>
      <trkpt lat="45.23828" lon="5.68967">
        <ele>222</ele>
        <time>2012-05-03T13:54:35Z</time>
      </trkpt>
      <trkpt lat="45.23836" lon="5.68969">
        <ele>225</ele>
        <time>2012-05-03T13:54:37Z</time>
      </trkpt>
      <trkpt lat="45.23844" lon="5.68973">
        <ele>226</ele>
        <time>2012-05-03T13:54:39Z</time>
      </trkpt>
      <trkpt lat="45.23848" lon="5.68975">
        <ele>226</ele>
        <time>2012-05-03T13:54:40Z</time>
      </trkpt>
      <trkpt lat="45.2386" lon="5.68977">
        <ele>227</ele>
        <time>2012-05-03T13:54:45Z</time>
      </trkpt>
      <trkpt lat="45.23868" lon="5.6898">
        <ele>227</ele>
        <time>2012-05-03T13:54:47Z</time>
      </trkpt>
      <trkpt lat="45.23875" lon="5.68982">
        <ele>228</ele>
        <time>2012-05-03T13:54:49Z</time>
      </trkpt>
      <trkpt lat="45.23881" lon="5.68983">
        <ele>229</ele>
        <time>2012-05-03T13:54:51Z</time>
      </trkpt>
      <trkpt lat="45.23888" lon="5.68984">
        <ele>231</ele>
        <time>2012-05-03T13:54:54Z</time>
      </trkpt>
      <trkpt lat="45.23894" lon="5.68984">
        <ele>230</ele>
        <time>2012-05-03T13:54:55Z</time>
      </trkpt>
      <trkpt lat="45.23902" lon="5.68983">
        <ele>231</ele>
        <time>2012-05-03T13:54:58Z</time>
      </trkpt>
      <trkpt lat="45.23909" lon="5.68983">
        <ele>233</ele>
        <time>2012-05-03T13:55:01Z</time>
      </trkpt>
      <trkpt lat="45.23915" lon="5.68987">
        <ele>233</ele>
        <time>2012-05-03T13:55:03Z</time>
      </trkpt>
      <trkpt lat="45.23922" lon="5.68994">
        <ele>234</ele>
        <time>2012-05-03T13:55:06Z</time>
      </trkpt>
      <trkpt lat="45.23928" lon="5.68998">
        <ele>237</ele>
        <time>2012-05-03T13:55:09Z</time>
      </trkpt>
      <trkpt lat="45.23936" lon="5.69001">
        <ele>240</ele>
        <time>2012-05-03T13:55:13Z</time>
      </trkpt>
      <trkpt lat="45.23944" lon="5.69003">
        <ele>240</ele>
        <time>2012-05-03T13:55:18Z</time>
      </trkpt>
      <trkpt lat="45.23949" lon="5.69008">
        <ele>236</ele>
        <time>2012-05-03T13:55:21Z</time>
      </trkpt>
      <trkpt lat="45.23952" lon="5.6902">
        <ele>232</ele>
        <time>2012-05-03T13:55:24Z</time>
      </trkpt>
      <trkpt lat="45.2395" lon="5.69029">
        <ele>232</ele>
        <time>2012-05-03T13:55:27Z</time>
      </trkpt>
      <trkpt lat="45.2395" lon="5.69038">
        <ele>232</ele>
        <time>2012-05-03T13:55:29Z</time>
      </trkpt>
      <trkpt lat="45.23949" lon="5.69048">
        <ele>232</ele>
        <time>2012-05-03T13:55:31Z</time>
      </trkpt>
      <trkpt lat="45.2395" lon="5.6906">
        <ele>230</ele>
        <time>2012-05-03T13:55:34Z</time>
      </trkpt>
      <trkpt lat="45.23954" lon="5.6907">
        <ele>229</ele>
        <time>2012-05-03T13:55:37Z</time>
      </trkpt>
      <trkpt lat="45.23958" lon="5.69076">
        <ele>229</ele>
        <time>2012-05-03T13:55:39Z</time>
      </trkpt>
      <trkpt lat="45.2396" lon="5.69079">
        <ele>231</ele>
        <time>2012-05-03T13:55:40Z</time>
      </trkpt>
      <trkpt lat="45.23969" lon="5.69094">
        <ele>233</ele>
        <time>2012-05-03T13:55:45Z</time>
      </trkpt>
      <trkpt lat="45.23976" lon="5.69101">
        <ele>233</ele>
        <time>2012-05-03T13:55:49Z</time>
      </trkpt>
      <trkpt lat="45.23982" lon="5.69103">
        <ele>234</ele>
        <time>2012-05-03T13:55:52Z</time>
      </trkpt>
      <trkpt lat="45.23991" lon="5.69106">
        <ele>241</ele>
        <time>2012-05-03T13:55:55Z</time>
      </trkpt>
      <trkpt lat="45.23998" lon="5.69109">
        <ele>243</ele>
        <time>2012-05-03T13:55:59Z</time>
      </trkpt>
      <trkpt lat="45.24005" lon="5.69106">
        <ele>245</ele>
        <time>2012-05-03T13:56:01Z</time>
      </trkpt>
      <trkpt lat="45.24012" lon="5.69099">
        <ele>248</ele>
        <time>2012-05-03T13:56:08Z</time>
      </trkpt>
      <trkpt lat="45.24021" lon="5.69102">
        <ele>249</ele>
        <time>2012-05-03T13:56:14Z</time>
      </trkpt>
      <trkpt lat="45.24029" lon="5.69105">
        <ele>248</ele>
        <time>2012-05-03T13:56:19Z</time>
      </trkpt>
      <trkpt lat="45.24037" lon="5.6911">
        <ele>248</ele>
        <time>2012-05-03T13:56:25Z</time>
      </trkpt>
      <trkpt lat="45.24046" lon="5.6911">
        <ele>247</ele>
        <time>2012-05-03T13:56:31Z</time>
      </trkpt>
      <trkpt lat="45.24055" lon="5.69112">
        <ele>258</ele>
        <time>2012-05-03T13:56:41Z</time>
      </trkpt>
      <trkpt lat="45.24056" lon="5.69112">
        <ele>259</ele>
        <time>2012-05-03T13:56:42Z</time>
      </trkpt>
      <trkpt lat="45.24071" lon="5.69111">
        <ele>262</ele>
        <time>2012-05-03T13:56:52Z</time>
      </trkpt>
      <trkpt lat="45.24071" lon="5.69099">
        <ele>270</ele>
        <time>2012-05-03T13:57:10Z</time>
      </trkpt>
      <trkpt lat="45.24069" lon="5.69086">
        <ele>266</ele>
        <time>2012-05-03T13:57:17Z</time>
      </trkpt>
      <trkpt lat="45.24069" lon="5.69074">
        <ele>268</ele>
        <time>2012-05-03T13:57:19Z</time>
      </trkpt>
      <trkpt lat="45.24071" lon="5.69062">
        <ele>267</ele>
        <time>2012-05-03T13:57:23Z</time>
      </trkpt>
      <trkpt lat="45.24075" lon="5.69055">
        <ele>266</ele>
        <time>2012-05-03T13:57:27Z</time>
      </trkpt>
      <trkpt lat="45.24082" lon="5.6905">
        <ele>270</ele>
        <time>2012-05-03T13:57:31Z</time>
      </trkpt>
      <trkpt lat="45.24089" lon="5.69044">
        <ele>268</ele>
        <time>2012-05-03T13:57:36Z</time>
      </trkpt>
      <trkpt lat="45.24097" lon="5.69039">
        <ele>268</ele>
        <time>2012-05-03T13:57:43Z</time>
      </trkpt>
      <trkpt lat="45.24099" lon="5.69039">
        <ele>268</ele>
        <time>2012-05-03T13:57:43Z</time>
      </trkpt>
      <trkpt lat="45.24112" lon="5.69031">
        <ele>273</ele>
        <time>2012-05-03T13:58:05Z</time>
      </trkpt>
      <trkpt lat="45.24119" lon="5.6903">
        <ele>271</ele>
        <time>2012-05-03T13:58:11Z</time>
      </trkpt>
      <trkpt lat="45.24126" lon="5.6903">
        <ele>273</ele>
        <time>2012-05-03T13:58:17Z</time>
      </trkpt>
      <trkpt lat="45.24134" lon="5.69026">
        <ele>281</ele>
        <time>2012-05-03T13:58:27Z</time>
      </trkpt>
      <trkpt lat="45.24142" lon="5.69023">
        <ele>284</ele>
        <time>2012-05-03T13:58:38Z</time>
      </trkpt>
      <trkpt lat="45.24146" lon="5.69031">
        <ele>314</ele>
        <time>2012-05-03T13:58:54Z</time>
      </trkpt>
      <trkpt lat="45.24146" lon="5.69035">
        <ele>314</ele>
        <time>2012-05-03T13:58:55Z</time>
      </trkpt>
      <trkpt lat="45.24154" lon="5.69047">
        <ele>313</ele>
        <time>2012-05-03T13:59:00Z</time>
      </trkpt>
      <trkpt lat="45.24157" lon="5.69054">
        <ele>312</ele>
        <time>2012-05-03T13:59:02Z</time>
      </trkpt>
      <trkpt lat="45.24161" lon="5.69063">
        <ele>311</ele>
        <time>2012-05-03T13:59:03Z</time>
      </trkpt>
      <trkpt lat="45.24165" lon="5.69073">
        <ele>312</ele>
        <time>2012-05-03T13:59:06Z</time>
      </trkpt>
      <trkpt lat="45.24171" lon="5.69082">
        <ele>305</ele>
        <time>2012-05-03T13:59:12Z</time>
      </trkpt>
      <trkpt lat="45.24177" lon="5.69073">
        <ele>308</ele>
        <time>2012-05-03T13:59:31Z</time>
      </trkpt>
      <trkpt lat="45.24168" lon="5.69075">
        <ele>313</ele>
        <time>2012-05-03T13:59:39Z</time>
      </trkpt>
      <trkpt lat="45.24177" lon="5.69075">
        <ele>308</ele>
        <time>2012-05-03T13:59:50Z</time>
      </trkpt>
      <trkpt lat="45.24186" lon="5.69075">
        <ele>308</ele>
        <time>2012-05-03T13:59:57Z</time>
      </trkpt>
      <trkpt lat="45.24187" lon="5.69075">
        <ele>308</ele>
        <time>2012-05-03T13:59:59Z</time>
      </trkpt>
      <trkpt lat="45.24201" lon="5.69074">
        <ele>310</ele>
        <time>2012-05-03T14:00:10Z</time>
      </trkpt>
      <trkpt lat="45.24209" lon="5.69074">
        <ele>310</ele>
        <time>2012-05-03T14:00:15Z</time>
      </trkpt>
      <trkpt lat="45.24218" lon="5.69073">
        <ele>311</ele>
        <time>2012-05-03T14:00:24Z</time>
      </trkpt>
      <trkpt lat="45.24225" lon="5.69065">
        <ele>319</ele>
        <time>2012-05-03T14:00:39Z</time>
      </trkpt>
      <trkpt lat="45.24233" lon="5.69067">
        <ele>318</ele>
        <time>2012-05-03T14:00:48Z</time>
      </trkpt>
      <trkpt lat="45.24241" lon="5.69061">
        <ele>323</ele>
        <time>2012-05-03T14:00:58Z</time>
      </trkpt>
      <trkpt lat="45.24242" lon="5.6906">
        <ele>325</ele>
        <time>2012-05-03T14:00:59Z</time>
      </trkpt>
      <trkpt lat="45.24256" lon="5.6906">
        <ele>325</ele>
        <time>2012-05-03T14:01:16Z</time>
      </trkpt>
      <trkpt lat="45.24265" lon="5.69061">
        <ele>329</ele>
        <time>2012-05-03T14:01:21Z</time>
      </trkpt>
      <trkpt lat="45.24273" lon="5.69064">
        <ele>333</ele>
        <time>2012-05-03T14:01:29Z</time>
      </trkpt>
      <trkpt lat="45.24282" lon="5.69065">
        <ele>332</ele>
        <time>2012-05-03T14:01:36Z</time>
      </trkpt>
      <trkpt lat="45.24289" lon="5.69065">
        <ele>331</ele>
        <time>2012-05-03T14:01:40Z</time>
      </trkpt>
      <trkpt lat="45.24296" lon="5.69062">
        <ele>330</ele>
        <time>2012-05-03T14:01:43Z</time>
      </trkpt>
      <trkpt lat="45.24302" lon="5.69056">
        <ele>331</ele>
        <time>2012-05-03T14:01:46Z</time>
      </trkpt>
      <trkpt lat="45.24309" lon="5.69049">
        <ele>331</ele>
        <time>2012-05-03T14:01:51Z</time>
      </trkpt>
      <trkpt lat="45.24317" lon="5.69045">
        <ele>334</ele>
        <time>2012-05-03T14:01:55Z</time>
      </trkpt>
      <trkpt lat="45.24323" lon="5.69039">
        <ele>338</ele>
        <time>2012-05-03T14:02:00Z</time>
      </trkpt>
      <trkpt lat="45.24325" lon="5.69038">
        <ele>343</ele>
        <time>2012-05-03T14:02:01Z</time>
      </trkpt>
      <trkpt lat="45.24338" lon="5.69027">
        <ele>350</ele>
        <time>2012-05-03T14:02:11Z</time>
      </trkpt>
      <trkpt lat="45.24344" lon="5.69021">
        <ele>352</ele>
        <time>2012-05-03T14:02:19Z</time>
      </trkpt>
      <trkpt lat="45.24349" lon="5.69011">
        <ele>355</ele>
        <time>2012-05-03T14:02:29Z</time>
      </trkpt>
      <trkpt lat="45.24354" lon="5.69005">
        <ele>356</ele>
        <time>2012-05-03T14:02:33Z</time>
      </trkpt>
      <trkpt lat="45.2436" lon="5.68998">
        <ele>357</ele>
        <time>2012-05-03T14:02:38Z</time>
      </trkpt>
      <trkpt lat="45.24365" lon="5.68988">
        <ele>361</ele>
        <time>2012-05-03T14:02:45Z</time>
      </trkpt>
      <trkpt lat="45.24372" lon="5.68981">
        <ele>364</ele>
        <time>2012-05-03T14:02:53Z</time>
      </trkpt>
      <trkpt lat="45.24381" lon="5.68983">
        <ele>367</ele>
        <time>2012-05-03T14:02:57Z</time>
      </trkpt>
      <trkpt lat="45.24388" lon="5.68991">
        <ele>363</ele>
        <time>2012-05-03T14:03:03Z</time>
      </trkpt>
      <trkpt lat="45.24389" lon="5.68992">
        <ele>364</ele>
        <time>2012-05-03T14:03:04Z</time>
      </trkpt>
      <trkpt lat="45.24402" lon="5.69001">
        <ele>365</ele>
        <time>2012-05-03T14:03:16Z</time>
      </trkpt>
      <trkpt lat="45.2441" lon="5.69005">
        <ele>364</ele>
        <time>2012-05-03T14:03:23Z</time>
      </trkpt>
      <trkpt lat="45.24415" lon="5.69015">
        <ele>363</ele>
        <time>2012-05-03T14:03:33Z</time>
      </trkpt>
      <trkpt lat="45.24419" lon="5.69023">
        <ele>363</ele>
        <time>2012-05-03T14:03:37Z</time>
      </trkpt>
      <trkpt lat="45.24425" lon="5.69032">
        <ele>365</ele>
        <time>2012-05-03T14:03:42Z</time>
      </trkpt>
      <trkpt lat="45.24433" lon="5.69033">
        <ele>368</ele>
        <time>2012-05-03T14:03:46Z</time>
      </trkpt>
      <trkpt lat="45.24438" lon="5.69036">
        <ele>367</ele>
        <time>2012-05-03T14:03:48Z</time>
      </trkpt>
      <trkpt lat="45.24443" lon="5.69043">
        <ele>368</ele>
        <time>2012-05-03T14:03:51Z</time>
      </trkpt>
      <trkpt lat="45.2445" lon="5.69048">
        <ele>367</ele>
        <time>2012-05-03T14:03:53Z</time>
      </trkpt>
      <trkpt lat="45.24455" lon="5.69053">
        <ele>367</ele>
        <time>2012-05-03T14:03:55Z</time>
      </trkpt>
      <trkpt lat="45.24455" lon="5.69066">
        <ele>363</ele>
        <time>2012-05-03T14:03:59Z</time>
      </trkpt>
      <trkpt lat="45.24447" lon="5.69069">
        <ele>363</ele>
        <time>2012-05-03T14:04:03Z</time>
      </trkpt>
      <trkpt lat="45.24445" lon="5.6907">
        <ele>364</ele>
        <time>2012-05-03T14:04:05Z</time>
      </trkpt>
      <trkpt lat="45.24432" lon="5.69076">
        <ele>366</ele>
        <time>2012-05-03T14:04:15Z</time>
      </trkpt>
      <trkpt lat="45.24426" lon="5.69081">
        <ele>368</ele>
        <time>2012-05-03T14:04:19Z</time>
      </trkpt>
      <trkpt lat="45.24426" lon="5.69093">
        <ele>365</ele>
        <time>2012-05-03T14:04:24Z</time>
      </trkpt>
      <trkpt lat="45.24433" lon="5.691">
        <ele>363</ele>
        <time>2012-05-03T14:04:40Z</time>
      </trkpt>
      <trkpt lat="45.24441" lon="5.69099">
        <ele>362</ele>
        <time>2012-05-03T14:04:49Z</time>
      </trkpt>
      <trkpt lat="45.24449" lon="5.69104">
        <ele>362</ele>
        <time>2012-05-03T14:04:53Z</time>
      </trkpt>
      <trkpt lat="45.24457" lon="5.69108">
        <ele>363</ele>
        <time>2012-05-03T14:04:58Z</time>
      </trkpt>
      <trkpt lat="45.24464" lon="5.69111">
        <ele>361</ele>
        <time>2012-05-03T14:05:07Z</time>
      </trkpt>
      <trkpt lat="45.24466" lon="5.69112">
        <ele>363</ele>
        <time>2012-05-03T14:05:08Z</time>
      </trkpt>
      <trkpt lat="45.24477" lon="5.69118">
        <ele>374</ele>
        <time>2012-05-03T14:05:23Z</time>
      </trkpt>
      <trkpt lat="45.24486" lon="5.69119">
        <ele>376</ele>
        <time>2012-05-03T14:05:30Z</time>
      </trkpt>
      <trkpt lat="45.2449" lon="5.69128">
        <ele>380</ele>
        <time>2012-05-03T14:05:38Z</time>
      </trkpt>
      <trkpt lat="45.24497" lon="5.69133">
        <ele>382</ele>
        <time>2012-05-03T14:05:43Z</time>
      </trkpt>
      <trkpt lat="45.24504" lon="5.69136">
        <ele>382</ele>
        <time>2012-05-03T14:05:47Z</time>
      </trkpt>
      <trkpt lat="45.24512" lon="5.6914">
        <ele>384</ele>
        <time>2012-05-03T14:05:50Z</time>
      </trkpt>
      <trkpt lat="45.24519" lon="5.69145">
        <ele>384</ele>
        <time>2012-05-03T14:05:54Z</time>
      </trkpt>
      <trkpt lat="45.24526" lon="5.69147">
        <ele>385</ele>
        <time>2012-05-03T14:05:58Z</time>
      </trkpt>
      <trkpt lat="45.24534" lon="5.6915">
        <ele>385</ele>
        <time>2012-05-03T14:06:02Z</time>
      </trkpt>
      <trkpt lat="45.24543" lon="5.69152">
        <ele>382</ele>
        <time>2012-05-03T14:06:07Z</time>
      </trkpt>
      <trkpt lat="45.24551" lon="5.69151">
        <ele>383</ele>
        <time>2012-05-03T14:06:11Z</time>
      </trkpt>
      <trkpt lat="45.24553" lon="5.69151">
        <ele>384</ele>
        <time>2012-05-03T14:06:13Z</time>
      </trkpt>
      <trkpt lat="45.24566" lon="5.69162">
        <ele>399</ele>
        <time>2012-05-03T14:06:27Z</time>
      </trkpt>
      <trkpt lat="45.24573" lon="5.69167">
        <ele>401</ele>
        <time>2012-05-03T14:06:31Z</time>
      </trkpt>
      <trkpt lat="45.24581" lon="5.69168">
        <ele>399</ele>
        <time>2012-05-03T14:06:35Z</time>
      </trkpt>
      <trkpt lat="45.24588" lon="5.69169">
        <ele>399</ele>
        <time>2012-05-03T14:06:39Z</time>
      </trkpt>
      <trkpt lat="45.24594" lon="5.69171">
        <ele>399</ele>
        <time>2012-05-03T14:06:42Z</time>
      </trkpt>
      <trkpt lat="45.24603" lon="5.69174">
        <ele>400</ele>
        <time>2012-05-03T14:06:44Z</time>
      </trkpt>
      <trkpt lat="45.24611" lon="5.69177">
        <ele>400</ele>
        <time>2012-05-03T14:06:49Z</time>
      </trkpt>
      <trkpt lat="45.24616" lon="5.69184">
        <ele>404</ele>
        <time>2012-05-03T14:06:53Z</time>
      </trkpt>
      <trkpt lat="45.24622" lon="5.69193">
        <ele>407</ele>
        <time>2012-05-03T14:06:57Z</time>
      </trkpt>
      <trkpt lat="45.24629" lon="5.69199">
        <ele>412</ele>
        <time>2012-05-03T14:07:03Z</time>
      </trkpt>
      <trkpt lat="45.24638" lon="5.69201">
        <ele>411</ele>
        <time>2012-05-03T14:07:10Z</time>
      </trkpt>
      <trkpt lat="45.24646" lon="5.69205">
        <ele>413</ele>
        <time>2012-05-03T14:07:15Z</time>
      </trkpt>
      <trkpt lat="45.24647" lon="5.69207">
        <ele>413</ele>
        <time>2012-05-03T14:07:16Z</time>
      </trkpt>
      <trkpt lat="45.24659" lon="5.69219">
        <ele>416</ele>
        <time>2012-05-03T14:07:23Z</time>
      </trkpt>
      <trkpt lat="45.24667" lon="5.69225">
        <ele>417</ele>
        <time>2012-05-03T14:07:27Z</time>
      </trkpt>
      <trkpt lat="45.24674" lon="5.69232">
        <ele>417</ele>
        <time>2012-05-03T14:07:31Z</time>
      </trkpt>
      <trkpt lat="45.24679" lon="5.69241">
        <ele>417</ele>
        <time>2012-05-03T14:07:34Z</time>
      </trkpt>
      <trkpt lat="45.24685" lon="5.69248">
        <ele>416</ele>
        <time>2012-05-03T14:07:39Z</time>
      </trkpt>
      <trkpt lat="45.24692" lon="5.69256">
        <ele>417</ele>
        <time>2012-05-03T14:07:42Z</time>
      </trkpt>
      <trkpt lat="45.24699" lon="5.6926">
        <ele>421</ele>
        <time>2012-05-03T14:07:46Z</time>
      </trkpt>
      <trkpt lat="45.24708" lon="5.69265">
        <ele>423</ele>
        <time>2012-05-03T14:07:51Z</time>
      </trkpt>
      <trkpt lat="45.24714" lon="5.69272">
        <ele>421</ele>
        <time>2012-05-03T14:07:54Z</time>
      </trkpt>
      <trkpt lat="45.24719" lon="5.69281">
        <ele>417</ele>
        <time>2012-05-03T14:07:59Z</time>
      </trkpt>
      <trkpt lat="45.24727" lon="5.69285">
        <ele>416</ele>
        <time>2012-05-03T14:08:07Z</time>
      </trkpt>
      <trkpt lat="45.24733" lon="5.69291">
        <ele>418</ele>
        <time>2012-05-03T14:08:26Z</time>
      </trkpt>
      <trkpt lat="45.24734" lon="5.69293">
        <ele>418</ele>
        <time>2012-05-03T14:08:27Z</time>
      </trkpt>
      <trkpt lat="45.24747" lon="5.69301">
        <ele>419</ele>
        <time>2012-05-03T14:08:39Z</time>
      </trkpt>
      <trkpt lat="45.24756" lon="5.69301">
        <ele>418</ele>
        <time>2012-05-03T14:08:46Z</time>
      </trkpt>
      <trkpt lat="45.24764" lon="5.69299">
        <ele>423</ele>
        <time>2012-05-03T14:08:51Z</time>
      </trkpt>
      <trkpt lat="45.24772" lon="5.69297">
        <ele>420</ele>
        <time>2012-05-03T14:08:57Z</time>
      </trkpt>
      <trkpt lat="45.2478" lon="5.69296">
        <ele>421</ele>
        <time>2012-05-03T14:09:02Z</time>
      </trkpt>
      <trkpt lat="45.24789" lon="5.69299">
        <ele>421</ele>
        <time>2012-05-03T14:09:10Z</time>
      </trkpt>
      <trkpt lat="45.24796" lon="5.69301">
        <ele>421</ele>
        <time>2012-05-03T14:09:14Z</time>
      </trkpt>
      <trkpt lat="45.24802" lon="5.69304">
        <ele>427</ele>
        <time>2012-05-03T14:09:17Z</time>
      </trkpt>
      <trkpt lat="45.24808" lon="5.69307">
        <ele>428</ele>
        <time>2012-05-03T14:09:19Z</time>
      </trkpt>
      <trkpt lat="45.24817" lon="5.69308">
        <ele>426</ele>
        <time>2012-05-03T14:09:23Z</time>
      </trkpt>
      <trkpt lat="45.24824" lon="5.69311">
        <ele>427</ele>
        <time>2012-05-03T14:09:26Z</time>
      </trkpt>
      <trkpt lat="45.24831" lon="5.69314">
        <ele>428</ele>
        <time>2012-05-03T14:09:30Z</time>
      </trkpt>
      <trkpt lat="45.24833" lon="5.69315">
        <ele>428</ele>
        <time>2012-05-03T14:09:30Z</time>
      </trkpt>
      <trkpt lat="45.24847" lon="5.69319">
        <ele>421</ele>
        <time>2012-05-03T14:09:39Z</time>
      </trkpt>
      <trkpt lat="45.24854" lon="5.69321">
        <ele>420</ele>
        <time>2012-05-03T14:09:43Z</time>
      </trkpt>
      <trkpt lat="45.24863" lon="5.69319">
        <ele>417</ele>
        <time>2012-05-03T14:09:50Z</time>
      </trkpt>
      <trkpt lat="45.24871" lon="5.69318">
        <ele>417</ele>
        <time>2012-05-03T14:09:59Z</time>
      </trkpt>
      <trkpt lat="45.24879" lon="5.69315">
        <ele>413</ele>
        <time>2012-05-03T14:10:01Z</time>
      </trkpt>
      <trkpt lat="45.24887" lon="5.69313">
        <ele>416</ele>
        <time>2012-05-03T14:10:05Z</time>
      </trkpt>
      <trkpt lat="45.24893" lon="5.69305">
        <ele>421</ele>
        <time>2012-05-03T14:10:10Z</time>
      </trkpt>
      <trkpt lat="45.249" lon="5.69299">
        <ele>429</ele>
        <time>2012-05-03T14:10:16Z</time>
      </trkpt>
      <trkpt lat="45.24908" lon="5.69294">
        <ele>434</ele>
        <time>2012-05-03T14:10:19Z</time>
      </trkpt>
      <trkpt lat="45.24914" lon="5.69285">
        <ele>436</ele>
        <time>2012-05-03T14:10:25Z</time>
      </trkpt>
      <trkpt lat="45.24917" lon="5.69274">
        <ele>437</ele>
        <time>2012-05-03T14:10:29Z</time>
      </trkpt>
      <trkpt lat="45.2492" lon="5.69264">
        <ele>438</ele>
        <time>2012-05-03T14:10:32Z</time>
      </trkpt>
      <trkpt lat="45.24921" lon="5.69261">
        <ele>438</ele>
        <time>2012-05-03T14:10:33Z</time>
      </trkpt>
      <trkpt lat="45.24924" lon="5.69241">
        <ele>444</ele>
        <time>2012-05-03T14:10:41Z</time>
      </trkpt>
      <trkpt lat="45.24927" lon="5.69231">
        <ele>444</ele>
        <time>2012-05-03T14:10:44Z</time>
      </trkpt>
      <trkpt lat="45.24932" lon="5.69221">
        <ele>444</ele>
        <time>2012-05-03T14:10:49Z</time>
      </trkpt>
      <trkpt lat="45.24938" lon="5.69216">
        <ele>454</ele>
        <time>2012-05-03T14:10:55Z</time>
      </trkpt>
      <trkpt lat="45.24944" lon="5.69208">
        <ele>454</ele>
        <time>2012-05-03T14:10:59Z</time>
      </trkpt>
      <trkpt lat="45.2495" lon="5.692">
        <ele>452</ele>
        <time>2012-05-03T14:11:07Z</time>
      </trkpt>
      <trkpt lat="45.24952" lon="5.69188">
        <ele>453</ele>
        <time>2012-05-03T14:11:15Z</time>
      </trkpt>
      <trkpt lat="45.24955" lon="5.69176">
        <ele>448</ele>
        <time>2012-05-03T14:11:25Z</time>
      </trkpt>
      <trkpt lat="45.24948" lon="5.69169">
        <ele>451</ele>
        <time>2012-05-03T14:11:31Z</time>
      </trkpt>
      <trkpt lat="45.24942" lon="5.69161">
        <ele>455</ele>
        <time>2012-05-03T14:11:37Z</time>
      </trkpt>
      <trkpt lat="45.24941" lon="5.6916">
        <ele>457</ele>
        <time>2012-05-03T14:11:39Z</time>
      </trkpt>
      <trkpt lat="45.24928" lon="5.69149">
        <ele>458</ele>
        <time>2012-05-03T14:11:53Z</time>
      </trkpt>
      <trkpt lat="45.24921" lon="5.69141">
        <ele>466</ele>
        <time>2012-05-03T14:12:08Z</time>
      </trkpt>
      <trkpt lat="45.2492" lon="5.69128">
        <ele>462</ele>
        <time>2012-05-03T14:12:20Z</time>
      </trkpt>
      <trkpt lat="45.24912" lon="5.69122">
        <ele>468</ele>
        <time>2012-05-03T14:12:29Z</time>
      </trkpt>
      <trkpt lat="45.2491" lon="5.6911">
        <ele>466</ele>
        <time>2012-05-03T14:12:40Z</time>
      </trkpt>
      <trkpt lat="45.24909" lon="5.69109">
        <ele>467</ele>
        <time>2012-05-03T14:12:41Z</time>
      </trkpt>
      <trkpt lat="45.24897" lon="5.691">
        <ele>468</ele>
        <time>2012-05-03T14:12:48Z</time>
      </trkpt>
      <trkpt lat="45.24891" lon="5.69095">
        <ele>468</ele>
        <time>2012-05-03T14:12:51Z</time>
      </trkpt>
      <trkpt lat="45.24884" lon="5.69087">
        <ele>470</ele>
        <time>2012-05-03T14:12:55Z</time>
      </trkpt>
      <trkpt lat="45.24879" lon="5.69081">
        <ele>471</ele>
        <time>2012-05-03T14:12:59Z</time>
      </trkpt>
      <trkpt lat="45.24873" lon="5.69074">
        <ele>477</ele>
        <time>2012-05-03T14:13:03Z</time>
      </trkpt>
      <trkpt lat="45.24866" lon="5.69069">
        <ele>474</ele>
        <time>2012-05-03T14:13:11Z</time>
      </trkpt>
      <trkpt lat="45.24858" lon="5.69066">
        <ele>477</ele>
        <time>2012-05-03T14:13:16Z</time>
      </trkpt>
      <trkpt lat="45.2485" lon="5.69061">
        <ele>476</ele>
        <time>2012-05-03T14:13:22Z</time>
      </trkpt>
      <trkpt lat="45.24848" lon="5.6905">
        <ele>472</ele>
        <time>2012-05-03T14:13:28Z</time>
      </trkpt>
      <trkpt lat="45.24841" lon="5.69043">
        <ele>475</ele>
        <time>2012-05-03T14:13:34Z</time>
      </trkpt>
      <trkpt lat="45.24836" lon="5.69034">
        <ele>470</ele>
        <time>2012-05-03T14:13:42Z</time>
      </trkpt>
      <trkpt lat="45.24836" lon="5.69032">
        <ele>471</ele>
        <time>2012-05-03T14:13:43Z</time>
      </trkpt>
      <trkpt lat="45.24828" lon="5.69013">
        <ele>471</ele>
        <time>2012-05-03T14:13:59Z</time>
      </trkpt>
      <trkpt lat="45.24824" lon="5.69002">
        <ele>475</ele>
        <time>2012-05-03T14:14:11Z</time>
      </trkpt>
      <trkpt lat="45.24818" lon="5.68995">
        <ele>478</ele>
        <time>2012-05-03T14:14:16Z</time>
      </trkpt>
      <trkpt lat="45.24812" lon="5.6899">
        <ele>482</ele>
        <time>2012-05-03T14:14:17Z</time>
      </trkpt>
      <trkpt lat="45.24806" lon="5.68985">
        <ele>483</ele>
        <time>2012-05-03T14:14:19Z</time>
      </trkpt>
      <trkpt lat="45.24799" lon="5.68981">
        <ele>484</ele>
        <time>2012-05-03T14:14:22Z</time>
      </trkpt>
      <trkpt lat="45.24793" lon="5.68978">
        <ele>483</ele>
        <time>2012-05-03T14:14:23Z</time>
      </trkpt>
      <trkpt lat="45.24788" lon="5.68975">
        <ele>484</ele>
        <time>2012-05-03T14:14:26Z</time>
      </trkpt>
      <trkpt lat="45.24782" lon="5.6897">
        <ele>485</ele>
        <time>2012-05-03T14:14:27Z</time>
      </trkpt>
      <trkpt lat="45.24776" lon="5.68966">
        <ele>488</ele>
        <time>2012-05-03T14:14:30Z</time>
      </trkpt>
      <trkpt lat="45.24771" lon="5.6896">
        <ele>488</ele>
        <time>2012-05-03T14:14:31Z</time>
      </trkpt>
      <trkpt lat="45.24767" lon="5.68954">
        <ele>490</ele>
        <time>2012-05-03T14:14:34Z</time>
      </trkpt>
      <trkpt lat="45.24765" lon="5.68951">
        <ele>490</ele>
        <time>2012-05-03T14:14:35Z</time>
      </trkpt>
      <trkpt lat="45.24762" lon="5.68943">
        <ele>493</ele>
        <time>2012-05-03T14:14:35Z</time>
      </trkpt>
      <trkpt lat="45.24758" lon="5.68933">
        <ele>492</ele>
        <time>2012-05-03T14:14:38Z</time>
      </trkpt>
      <trkpt lat="45.24755" lon="5.68922">
        <ele>489</ele>
        <time>2012-05-03T14:14:43Z</time>
      </trkpt>
      <trkpt lat="45.24757" lon="5.68912">
        <ele>484</ele>
        <time>2012-05-03T14:14:46Z</time>
      </trkpt>
      <trkpt lat="45.24757" lon="5.68908">
        <ele>484</ele>
        <time>2012-05-03T14:14:47Z</time>
      </trkpt>
      <trkpt lat="45.24758" lon="5.68895">
        <ele>487</ele>
        <time>2012-05-03T14:14:47Z</time>
      </trkpt>
      <trkpt lat="45.24766" lon="5.68895">
        <ele>489</ele>
        <time>2012-05-03T14:14:51Z</time>
      </trkpt>
      <trkpt lat="45.24775" lon="5.68895">
        <ele>492</ele>
        <time>2012-05-03T14:14:59Z</time>
      </trkpt>
      <trkpt lat="45.24782" lon="5.68901">
        <ele>498</ele>
        <time>2012-05-03T14:15:13Z</time>
      </trkpt>
      <trkpt lat="45.24786" lon="5.68912">
        <ele>491</ele>
        <time>2012-05-03T14:15:50Z</time>
      </trkpt>
      <trkpt lat="45.24787" lon="5.68913">
        <ele>490</ele>
        <time>2012-05-03T14:15:51Z</time>
      </trkpt>
      <trkpt lat="45.24801" lon="5.68916">
        <ele>490</ele>
        <time>2012-05-03T14:15:58Z</time>
      </trkpt>
      <trkpt lat="45.24809" lon="5.68917">
        <ele>490</ele>
        <time>2012-05-03T14:16:00Z</time>
      </trkpt>
      <trkpt lat="45.24817" lon="5.6892">
        <ele>489</ele>
        <time>2012-05-03T14:16:07Z</time>
      </trkpt>
      <trkpt lat="45.24826" lon="5.6892">
        <ele>494</ele>
        <time>2012-05-03T14:16:12Z</time>
      </trkpt>
      <trkpt lat="45.24834" lon="5.68922">
        <ele>492</ele>
        <time>2012-05-03T14:16:23Z</time>
      </trkpt>
      <trkpt lat="45.24841" lon="5.68921">
        <ele>490</ele>
        <time>2012-05-03T14:16:30Z</time>
      </trkpt>
      <trkpt lat="45.24847" lon="5.68917">
        <ele>491</ele>
        <time>2012-05-03T14:16:33Z</time>
      </trkpt>
      <trkpt lat="45.24856" lon="5.68915">
        <ele>490</ele>
        <time>2012-05-03T14:16:38Z</time>
      </trkpt>
      <trkpt lat="45.24864" lon="5.68918">
        <ele>495</ele>
        <time>2012-05-03T14:16:45Z</time>
      </trkpt>
      <trkpt lat="45.24872" lon="5.68921">
        <ele>495</ele>
        <time>2012-05-03T14:16:54Z</time>
      </trkpt>
      <trkpt lat="45.24873" lon="5.68922">
        <ele>495</ele>
        <time>2012-05-03T14:16:55Z</time>
      </trkpt>
      <trkpt lat="45.24889" lon="5.68928">
        <ele>496</ele>
        <time>2012-05-03T14:17:11Z</time>
      </trkpt>
      <trkpt lat="45.24896" lon="5.68933">
        <ele>499</ele>
        <time>2012-05-03T14:17:20Z</time>
      </trkpt>
      <trkpt lat="45.24904" lon="5.68937">
        <ele>500</ele>
        <time>2012-05-03T14:17:25Z</time>
      </trkpt>
      <trkpt lat="45.24912" lon="5.68935">
        <ele>501</ele>
        <time>2012-05-03T14:17:32Z</time>
      </trkpt>
      <trkpt lat="45.2492" lon="5.68937">
        <ele>505</ele>
        <time>2012-05-03T14:17:36Z</time>
      </trkpt>
      <trkpt lat="45.24928" lon="5.68938">
        <ele>512</ele>
        <time>2012-05-03T14:17:43Z</time>
      </trkpt>
      <trkpt lat="45.24936" lon="5.68942">
        <ele>507</ele>
        <time>2012-05-03T14:17:51Z</time>
      </trkpt>
      <trkpt lat="45.24944" lon="5.68944">
        <ele>509</ele>
        <time>2012-05-03T14:17:59Z</time>
      </trkpt>
      <trkpt lat="45.24946" lon="5.68944">
        <ele>510</ele>
        <time>2012-05-03T14:17:59Z</time>
      </trkpt>
      <trkpt lat="45.24959" lon="5.68936">
        <ele>521</ele>
        <time>2012-05-03T14:18:10Z</time>
      </trkpt>
      <trkpt lat="45.24967" lon="5.68934">
        <ele>522</ele>
        <time>2012-05-03T14:18:19Z</time>
      </trkpt>
      <trkpt lat="45.24975" lon="5.68932">
        <ele>524</ele>
        <time>2012-05-03T14:18:26Z</time>
      </trkpt>
      <trkpt lat="45.24983" lon="5.68929">
        <ele>530</ele>
        <time>2012-05-03T14:18:33Z</time>
      </trkpt>
      <trkpt lat="45.24991" lon="5.68928">
        <ele>533</ele>
        <time>2012-05-03T14:18:43Z</time>
      </trkpt>
      <trkpt lat="45.24999" lon="5.68932">
        <ele>533</ele>
        <time>2012-05-03T14:18:58Z</time>
      </trkpt>
      <trkpt lat="45.25008" lon="5.68931">
        <ele>532</ele>
        <time>2012-05-03T14:19:03Z</time>
      </trkpt>
      <trkpt lat="45.25009" lon="5.68931">
        <ele>532</ele>
        <time>2012-05-03T14:19:04Z</time>
      </trkpt>
      <trkpt lat="45.25024" lon="5.68928">
        <ele>539</ele>
        <time>2012-05-03T14:19:41Z</time>
      </trkpt>
      <trkpt lat="45.25032" lon="5.68923">
        <ele>545</ele>
        <time>2012-05-03T14:19:50Z</time>
      </trkpt>
      <trkpt lat="45.25035" lon="5.68912">
        <ele>539</ele>
        <time>2012-05-03T14:20:01Z</time>
      </trkpt>
      <trkpt lat="45.25041" lon="5.68904">
        <ele>541</ele>
        <time>2012-05-03T14:20:07Z</time>
      </trkpt>
      <trkpt lat="45.25043" lon="5.68903">
        <ele>544</ele>
        <time>2012-05-03T14:20:08Z</time>
      </trkpt>
      <trkpt lat="45.25056" lon="5.68892">
        <ele>554</ele>
        <time>2012-05-03T14:20:21Z</time>
      </trkpt>
      <trkpt lat="45.25063" lon="5.68886">
        <ele>552</ele>
        <time>2012-05-03T14:20:30Z</time>
      </trkpt>
      <trkpt lat="45.25066" lon="5.68875">
        <ele>563</ele>
        <time>2012-05-03T14:20:35Z</time>
      </trkpt>
      <trkpt lat="45.25074" lon="5.68874">
        <ele>567</ele>
        <time>2012-05-03T14:20:54Z</time>
      </trkpt>
      <trkpt lat="45.25082" lon="5.68879">
        <ele>568</ele>
        <time>2012-05-03T14:21:01Z</time>
      </trkpt>
      <trkpt lat="45.2509" lon="5.68877">
        <ele>572</ele>
        <time>2012-05-03T14:21:11Z</time>
      </trkpt>
      <trkpt lat="45.25091" lon="5.68878">
        <ele>571</ele>
        <time>2012-05-03T14:21:12Z</time>
      </trkpt>
      <trkpt lat="45.25098" lon="5.68866">
        <ele>572</ele>
        <time>2012-05-03T14:21:44Z</time>
      </trkpt>
      <trkpt lat="45.25107" lon="5.6887">
        <ele>573</ele>
        <time>2012-05-03T14:22:03Z</time>
      </trkpt>
      <trkpt lat="45.25113" lon="5.68862">
        <ele>586</ele>
        <time>2012-05-03T14:22:26Z</time>
      </trkpt>
      <trkpt lat="45.25113" lon="5.68861">
        <ele>587</ele>
        <time>2012-05-03T14:22:27Z</time>
      </trkpt>
      <trkpt lat="45.25128" lon="5.68856">
        <ele>592</ele>
        <time>2012-05-03T14:23:01Z</time>
      </trkpt>
      <trkpt lat="45.25129" lon="5.68844">
        <ele>595</ele>
        <time>2012-05-03T14:23:16Z</time>
      </trkpt>
      <trkpt lat="45.25137" lon="5.68839">
        <ele>596</ele>
        <time>2012-05-03T14:23:31Z</time>
      </trkpt>
      <trkpt lat="45.25138" lon="5.68838">
        <ele>596</ele>
        <time>2012-05-03T14:23:32Z</time>
      </trkpt>
      <trkpt lat="45.25152" lon="5.68827">
        <ele>601</ele>
        <time>2012-05-03T14:24:06Z</time>
      </trkpt>
      <trkpt lat="45.25156" lon="5.68838">
        <ele>605</ele>
        <time>2012-05-03T14:25:22Z</time>
      </trkpt>
      <trkpt lat="45.25157" lon="5.68838">
        <ele>605</ele>
        <time>2012-05-03T14:25:23Z</time>
      </trkpt>
      <trkpt lat="45.25171" lon="5.68824">
        <ele>610</ele>
        <time>2012-05-03T14:25:37Z</time>
      </trkpt>
      <trkpt lat="45.25173" lon="5.68814">
        <ele>613</ele>
        <time>2012-05-03T14:25:43Z</time>
      </trkpt>
      <trkpt lat="45.25172" lon="5.68804">
        <ele>615</ele>
        <time>2012-05-03T14:25:47Z</time>
      </trkpt>
      <trkpt lat="45.25176" lon="5.68795">
        <ele>606</ele>
        <time>2012-05-03T14:25:52Z</time>
      </trkpt>
      <trkpt lat="45.25183" lon="5.6879">
        <ele>609</ele>
        <time>2012-05-03T14:25:56Z</time>
      </trkpt>
      <trkpt lat="45.25186" lon="5.68779">
        <ele>612</ele>
        <time>2012-05-03T14:26:03Z</time>
      </trkpt>
      <trkpt lat="45.25191" lon="5.68771">
        <ele>612</ele>
        <time>2012-05-03T14:26:08Z</time>
      </trkpt>
      <trkpt lat="45.25196" lon="5.68762">
        <ele>613</ele>
        <time>2012-05-03T14:26:15Z</time>
      </trkpt>
      <trkpt lat="45.25204" lon="5.68757">
        <ele>616</ele>
        <time>2012-05-03T14:26:24Z</time>
      </trkpt>
      <trkpt lat="45.25205" lon="5.68755">
        <ele>617</ele>
        <time>2012-05-03T14:26:25Z</time>
      </trkpt>
      <trkpt lat="45.25204" lon="5.68736">
        <ele>631</ele>
        <time>2012-05-03T14:26:36Z</time>
      </trkpt>
      <trkpt lat="45.25201" lon="5.68724">
        <ele>631</ele>
        <time>2012-05-03T14:26:42Z</time>
      </trkpt>
      <trkpt lat="45.25207" lon="5.68714">
        <ele>634</ele>
        <time>2012-05-03T14:26:51Z</time>
      </trkpt>
      <trkpt lat="45.2521" lon="5.68705">
        <ele>637</ele>
        <time>2012-05-03T14:27:36Z</time>
      </trkpt>
      <trkpt lat="45.25213" lon="5.687">
        <ele>637</ele>
        <time>2012-05-03T14:27:37Z</time>
      </trkpt>
      <trkpt lat="45.25209" lon="5.68683">
        <ele>636</ele>
        <time>2012-05-03T14:28:22Z</time>
      </trkpt>
      <trkpt lat="45.25202" lon="5.68677">
        <ele>636</ele>
        <time>2012-05-03T14:28:26Z</time>
      </trkpt>
      <trkpt lat="45.25195" lon="5.68669">
        <ele>638</ele>
        <time>2012-05-03T14:28:30Z</time>
      </trkpt>
      <trkpt lat="45.25198" lon="5.68659">
        <ele>624</ele>
        <time>2012-05-03T14:28:35Z</time>
      </trkpt>
      <trkpt lat="45.25198" lon="5.68647">
        <ele>624</ele>
        <time>2012-05-03T14:28:40Z</time>
      </trkpt>
      <trkpt lat="45.25198" lon="5.68645">
        <ele>625</ele>
        <time>2012-05-03T14:28:41Z</time>
      </trkpt>
      <trkpt lat="45.25197" lon="5.68624">
        <ele>627</ele>
        <time>2012-05-03T14:28:51Z</time>
      </trkpt>
      <trkpt lat="45.25195" lon="5.68613">
        <ele>632</ele>
        <time>2012-05-03T14:28:55Z</time>
      </trkpt>
      <trkpt lat="45.25191" lon="5.68603">
        <ele>629</ele>
        <time>2012-05-03T14:29:02Z</time>
      </trkpt>
      <trkpt lat="45.25183" lon="5.68605">
        <ele>648</ele>
        <time>2012-05-03T14:29:07Z</time>
      </trkpt>
      <trkpt lat="45.25181" lon="5.68593">
        <ele>651</ele>
        <time>2012-05-03T14:29:09Z</time>
      </trkpt>
      <trkpt lat="45.25178" lon="5.68582">
        <ele>653</ele>
        <time>2012-05-03T14:29:14Z</time>
      </trkpt>
      <trkpt lat="45.25174" lon="5.68573">
        <ele>649</ele>
        <time>2012-05-03T14:29:18Z</time>
      </trkpt>
      <trkpt lat="45.25172" lon="5.68563">
        <ele>644</ele>
        <time>2012-05-03T14:29:23Z</time>
      </trkpt>
      <trkpt lat="45.2517" lon="5.68552">
        <ele>651</ele>
        <time>2012-05-03T14:29:24Z</time>
      </trkpt>
      <trkpt lat="45.25165" lon="5.68545">
        <ele>655</ele>
        <time>2012-05-03T14:29:26Z</time>
      </trkpt>
      <trkpt lat="45.25159" lon="5.68538">
        <ele>650</ele>
        <time>2012-05-03T14:29:31Z</time>
      </trkpt>
      <trkpt lat="45.25156" lon="5.68527">
        <ele>652</ele>
        <time>2012-05-03T14:29:34Z</time>
      </trkpt>
      <trkpt lat="45.25152" lon="5.68517">
        <ele>652</ele>
        <time>2012-05-03T14:29:38Z</time>
      </trkpt>
      <trkpt lat="45.25146" lon="5.68508">
        <ele>653</ele>
        <time>2012-05-03T14:29:43Z</time>
      </trkpt>
      <trkpt lat="45.25145" lon="5.68507">
        <ele>652</ele>
        <time>2012-05-03T14:29:44Z</time>
      </trkpt>
      <trkpt lat="45.2514" lon="5.68486">
        <ele>651</ele>
        <time>2012-05-03T14:29:58Z</time>
      </trkpt>
      <trkpt lat="45.25135" lon="5.68475">
        <ele>649</ele>
        <time>2012-05-03T14:30:08Z</time>
      </trkpt>
      <trkpt lat="45.25128" lon="5.68469">
        <ele>649</ele>
        <time>2012-05-03T14:30:17Z</time>
      </trkpt>
      <trkpt lat="45.25124" lon="5.6846">
        <ele>649</ele>
        <time>2012-05-03T14:30:23Z</time>
      </trkpt>
      <trkpt lat="45.2512" lon="5.6845">
        <ele>651</ele>
        <time>2012-05-03T14:30:30Z</time>
      </trkpt>
      <trkpt lat="45.25119" lon="5.68439">
        <ele>651</ele>
        <time>2012-05-03T14:30:37Z</time>
      </trkpt>
      <trkpt lat="45.25117" lon="5.68428">
        <ele>656</ele>
        <time>2012-05-03T14:30:46Z</time>
      </trkpt>
      <trkpt lat="45.25116" lon="5.68427">
        <ele>655</ele>
        <time>2012-05-03T14:30:47Z</time>
      </trkpt>
      <trkpt lat="45.25116" lon="5.68403">
        <ele>658</ele>
        <time>2012-05-03T14:31:07Z</time>
      </trkpt>
      <trkpt lat="45.25109" lon="5.68395">
        <ele>660</ele>
        <time>2012-05-03T14:31:14Z</time>
      </trkpt>
      <trkpt lat="45.25106" lon="5.68384">
        <ele>662</ele>
        <time>2012-05-03T14:31:26Z</time>
      </trkpt>
      <trkpt lat="45.25104" lon="5.68374">
        <ele>664</ele>
        <time>2012-05-03T14:31:31Z</time>
      </trkpt>
      <trkpt lat="45.25101" lon="5.68363">
        <ele>667</ele>
        <time>2012-05-03T14:31:39Z</time>
      </trkpt>
      <trkpt lat="45.25099" lon="5.68351">
        <ele>671</ele>
        <time>2012-05-03T14:31:46Z</time>
      </trkpt>
      <trkpt lat="45.25098" lon="5.68339">
        <ele>677</ele>
        <time>2012-05-03T14:31:53Z</time>
      </trkpt>
      <trkpt lat="45.25098" lon="5.68338">
        <ele>676</ele>
        <time>2012-05-03T14:31:54Z</time>
      </trkpt>
      <trkpt lat="45.25093" lon="5.68316">
        <ele>680</ele>
        <time>2012-05-03T14:32:03Z</time>
      </trkpt>
      <trkpt lat="45.25092" lon="5.68306">
        <ele>680</ele>
        <time>2012-05-03T14:32:07Z</time>
      </trkpt>
      <trkpt lat="45.25092" lon="5.68295">
        <ele>678</ele>
        <time>2012-05-03T14:32:09Z</time>
      </trkpt>
      <trkpt lat="45.25091" lon="5.68284">
        <ele>677</ele>
        <time>2012-05-03T14:32:13Z</time>
      </trkpt>
      <trkpt lat="45.25087" lon="5.68273">
        <ele>675</ele>
        <time>2012-05-03T14:32:17Z</time>
      </trkpt>
      <trkpt lat="45.25083" lon="5.68261">
        <ele>677</ele>
        <time>2012-05-03T14:32:21Z</time>
      </trkpt>
      <trkpt lat="45.25082" lon="5.68252">
        <ele>676</ele>
        <time>2012-05-03T14:32:23Z</time>
      </trkpt>
      <trkpt lat="45.25079" lon="5.68241">
        <ele>676</ele>
        <time>2012-05-03T14:32:27Z</time>
      </trkpt>
      <trkpt lat="45.25079" lon="5.68229">
        <ele>684</ele>
        <time>2012-05-03T14:32:36Z</time>
      </trkpt>
      <trkpt lat="45.25084" lon="5.68222">
        <ele>688</ele>
        <time>2012-05-03T14:32:43Z</time>
      </trkpt>
      <trkpt lat="45.25086" lon="5.6821">
        <ele>690</ele>
        <time>2012-05-03T14:32:49Z</time>
      </trkpt>
      <trkpt lat="45.25083" lon="5.68199">
        <ele>687</ele>
        <time>2012-05-03T14:33:01Z</time>
      </trkpt>
      <trkpt lat="45.25083" lon="5.68197">
        <ele>687</ele>
        <time>2012-05-03T14:33:02Z</time>
      </trkpt>
      <trkpt lat="45.25082" lon="5.68174">
        <ele>683</ele>
        <time>2012-05-03T14:33:16Z</time>
      </trkpt>
      <trkpt lat="45.25081" lon="5.68162">
        <ele>686</ele>
        <time>2012-05-03T14:33:22Z</time>
      </trkpt>
      <trkpt lat="45.25078" lon="5.68173">
        <ele>690</ele>
        <time>2012-05-03T14:33:40Z</time>
      </trkpt>
      <trkpt lat="45.25078" lon="5.68185">
        <ele>692</ele>
        <time>2012-05-03T14:33:43Z</time>
      </trkpt>
      <trkpt lat="45.2508" lon="5.68195">
        <ele>690</ele>
        <time>2012-05-03T14:33:48Z</time>
      </trkpt>
      <trkpt lat="45.25084" lon="5.68205">
        <ele>688</ele>
        <time>2012-05-03T14:33:54Z</time>
      </trkpt>
      <trkpt lat="45.25087" lon="5.68216">
        <ele>678</ele>
        <time>2012-05-03T14:34:05Z</time>
      </trkpt>
      <trkpt lat="45.25087" lon="5.68217">
        <ele>678</ele>
        <time>2012-05-03T14:34:06Z</time>
      </trkpt>
      <trkpt lat="45.25075" lon="5.68232">
        <ele>676</ele>
        <time>2012-05-03T14:34:24Z</time>
      </trkpt>
      <trkpt lat="45.25072" lon="5.68222">
        <ele>675</ele>
        <time>2012-05-03T14:34:28Z</time>
      </trkpt>
      <trkpt lat="45.25068" lon="5.68215">
        <ele>674</ele>
        <time>2012-05-03T14:34:31Z</time>
      </trkpt>
      <trkpt lat="45.25062" lon="5.68209">
        <ele>674</ele>
        <time>2012-05-03T14:34:35Z</time>
      </trkpt>
      <trkpt lat="45.25055" lon="5.68206">
        <ele>674</ele>
        <time>2012-05-03T14:34:36Z</time>
      </trkpt>
      <trkpt lat="45.25047" lon="5.68202">
        <ele>669</ele>
        <time>2012-05-03T14:34:40Z</time>
      </trkpt>
      <trkpt lat="45.2504" lon="5.68197">
        <ele>672</ele>
        <time>2012-05-03T14:34:44Z</time>
      </trkpt>
      <trkpt lat="45.25033" lon="5.68194">
        <ele>672</ele>
        <time>2012-05-03T14:34:48Z</time>
      </trkpt>
      <trkpt lat="45.25024" lon="5.68193">
        <ele>664</ele>
        <time>2012-05-03T14:34:53Z</time>
      </trkpt>
      <trkpt lat="45.25018" lon="5.68188">
        <ele>663</ele>
        <time>2012-05-03T14:34:59Z</time>
      </trkpt>
      <trkpt lat="45.25011" lon="5.68184">
        <ele>665</ele>
        <time>2012-05-03T14:35:02Z</time>
      </trkpt>
      <trkpt lat="45.25004" lon="5.68178">
        <ele>665</ele>
        <time>2012-05-03T14:35:04Z</time>
      </trkpt>
      <trkpt lat="45.24997" lon="5.68172">
        <ele>663</ele>
        <time>2012-05-03T14:35:07Z</time>
      </trkpt>
      <trkpt lat="45.24994" lon="5.68172">
        <ele>663</ele>
        <time>2012-05-03T14:35:08Z</time>
      </trkpt>
      <trkpt lat="45.2498" lon="5.6817">
        <ele>661</ele>
        <time>2012-05-03T14:35:14Z</time>
      </trkpt>
      <trkpt lat="45.24972" lon="5.68168">
        <ele>663</ele>
        <time>2012-05-03T14:35:17Z</time>
      </trkpt>
      <trkpt lat="45.24965" lon="5.68168">
        <ele>661</ele>
        <time>2012-05-03T14:35:18Z</time>
      </trkpt>
      <trkpt lat="45.24956" lon="5.68168">
        <ele>663</ele>
        <time>2012-05-03T14:35:20Z</time>
      </trkpt>
      <trkpt lat="45.24948" lon="5.68168">
        <ele>663</ele>
        <time>2012-05-03T14:35:23Z</time>
      </trkpt>
      <trkpt lat="45.2494" lon="5.68167">
        <ele>655</ele>
        <time>2012-05-03T14:35:25Z</time>
      </trkpt>
      <trkpt lat="45.24932" lon="5.68163">
        <ele>651</ele>
        <time>2012-05-03T14:35:31Z</time>
      </trkpt>
      <trkpt lat="45.24924" lon="5.68167">
        <ele>651</ele>
        <time>2012-05-03T14:35:37Z</time>
      </trkpt>
      <trkpt lat="45.24919" lon="5.68174">
        <ele>650</ele>
        <time>2012-05-03T14:35:38Z</time>
      </trkpt>
      <trkpt lat="45.24912" lon="5.68176">
        <ele>646</ele>
        <time>2012-05-03T14:35:40Z</time>
      </trkpt>
      <trkpt lat="45.24905" lon="5.68175">
        <ele>647</ele>
        <time>2012-05-03T14:35:42Z</time>
      </trkpt>
      <trkpt lat="45.24898" lon="5.68174">
        <ele>648</ele>
        <time>2012-05-03T14:35:44Z</time>
      </trkpt>
      <trkpt lat="45.24889" lon="5.68173">
        <ele>646</ele>
        <time>2012-05-03T14:35:51Z</time>
      </trkpt>
      <trkpt lat="45.24881" lon="5.68179">
        <ele>648</ele>
        <time>2012-05-03T14:36:00Z</time>
      </trkpt>
      <trkpt lat="45.24873" lon="5.68178">
        <ele>650</ele>
        <time>2012-05-03T14:36:06Z</time>
      </trkpt>
      <trkpt lat="45.24865" lon="5.68176">
        <ele>652</ele>
        <time>2012-05-03T14:36:11Z</time>
      </trkpt>
      <trkpt lat="45.24863" lon="5.68175">
        <ele>652</ele>
        <time>2012-05-03T14:36:12Z</time>
      </trkpt>
      <trkpt lat="45.2485" lon="5.68169">
        <ele>655</ele>
        <time>2012-05-03T14:36:20Z</time>
      </trkpt>
      <trkpt lat="45.24845" lon="5.68161">
        <ele>653</ele>
        <time>2012-05-03T14:36:23Z</time>
      </trkpt>
      <trkpt lat="45.2484" lon="5.68151">
        <ele>654</ele>
        <time>2012-05-03T14:36:27Z</time>
      </trkpt>
      <trkpt lat="45.24837" lon="5.68147">
        <ele>654</ele>
        <time>2012-05-03T14:40:03Z</time>
      </trkpt>
      <trkpt lat="45.24837" lon="5.68147">
        <ele>654</ele>
        <time>2012-05-03T14:40:03Z</time>
      </trkpt>
      <trkpt lat="45.24841" lon="5.68159">
        <ele>659</ele>
        <time>2012-05-03T14:45:44Z</time>
      </trkpt>
      <trkpt lat="45.24845" lon="5.68166">
        <ele>657</ele>
        <time>2012-05-03T14:45:47Z</time>
      </trkpt>
      <trkpt lat="45.24849" lon="5.68177">
        <ele>659</ele>
        <time>2012-05-03T14:45:51Z</time>
      </trkpt>
      <trkpt lat="45.24856" lon="5.68179">
        <ele>655</ele>
        <time>2012-05-03T14:45:53Z</time>
      </trkpt>
      <trkpt lat="45.24864" lon="5.68181">
        <ele>657</ele>
        <time>2012-05-03T14:45:57Z</time>
      </trkpt>
      <trkpt lat="45.2487" lon="5.68184">
        <ele>658</ele>
        <time>2012-05-03T14:45:59Z</time>
      </trkpt>
      <trkpt lat="45.24879" lon="5.68186">
        <ele>659</ele>
        <time>2012-05-03T14:46:03Z</time>
      </trkpt>
      <trkpt lat="45.24887" lon="5.6818">
        <ele>658</ele>
        <time>2012-05-03T14:46:11Z</time>
      </trkpt>
      <trkpt lat="45.24887" lon="5.68178">
        <ele>656</ele>
        <time>2012-05-03T14:46:13Z</time>
      </trkpt>
      <trkpt lat="45.24901" lon="5.68174">
        <ele>659</ele>
        <time>2012-05-03T14:46:19Z</time>
      </trkpt>
      <trkpt lat="45.24908" lon="5.68177">
        <ele>658</ele>
        <time>2012-05-03T14:46:24Z</time>
      </trkpt>
      <trkpt lat="45.24915" lon="5.6817">
        <ele>665</ele>
        <time>2012-05-03T14:46:33Z</time>
      </trkpt>
      <trkpt lat="45.24922" lon="5.68164">
        <ele>664</ele>
        <time>2012-05-03T14:46:40Z</time>
      </trkpt>
      <trkpt lat="45.2493" lon="5.68169">
        <ele>664</ele>
        <time>2012-05-03T14:46:47Z</time>
      </trkpt>
      <trkpt lat="45.24938" lon="5.68171">
        <ele>661</ele>
        <time>2012-05-03T14:46:54Z</time>
      </trkpt>
      <trkpt lat="45.24947" lon="5.68171">
        <ele>662</ele>
        <time>2012-05-03T14:47:01Z</time>
      </trkpt>
      <trkpt lat="45.24954" lon="5.68175">
        <ele>664</ele>
        <time>2012-05-03T14:47:09Z</time>
      </trkpt>
      <trkpt lat="45.24962" lon="5.68176">
        <ele>662</ele>
        <time>2012-05-03T14:47:21Z</time>
      </trkpt>
      <trkpt lat="45.24963" lon="5.68177">
        <ele>660</ele>
        <time>2012-05-03T14:47:22Z</time>
      </trkpt>
      <trkpt lat="45.24978" lon="5.68181">
        <ele>671</ele>
        <time>2012-05-03T14:47:35Z</time>
      </trkpt>
      <trkpt lat="45.24986" lon="5.68185">
        <ele>677</ele>
        <time>2012-05-03T14:47:41Z</time>
      </trkpt>
      <trkpt lat="45.24993" lon="5.68189">
        <ele>677</ele>
        <time>2012-05-03T14:47:46Z</time>
      </trkpt>
      <trkpt lat="45.25001" lon="5.68194">
        <ele>677</ele>
        <time>2012-05-03T14:47:52Z</time>
      </trkpt>
      <trkpt lat="45.25005" lon="5.68204">
        <ele>678</ele>
        <time>2012-05-03T14:47:57Z</time>
      </trkpt>
      <trkpt lat="45.25014" lon="5.68205">
        <ele>680</ele>
        <time>2012-05-03T14:48:05Z</time>
      </trkpt>
      <trkpt lat="45.25022" lon="5.68207">
        <ele>683</ele>
        <time>2012-05-03T14:48:16Z</time>
      </trkpt>
      <trkpt lat="45.2503" lon="5.68209">
        <ele>686</ele>
        <time>2012-05-03T14:48:20Z</time>
      </trkpt>
      <trkpt lat="45.25035" lon="5.68213">
        <ele>690</ele>
        <time>2012-05-03T14:48:23Z</time>
      </trkpt>
      <trkpt lat="45.25038" lon="5.68214">
        <ele>688</ele>
        <time>2012-05-03T14:48:24Z</time>
      </trkpt>
      <trkpt lat="45.25051" lon="5.6822">
        <ele>687</ele>
        <time>2012-05-03T14:48:31Z</time>
      </trkpt>
      <trkpt lat="45.25059" lon="5.68221">
        <ele>683</ele>
        <time>2012-05-03T14:48:37Z</time>
      </trkpt>
      <trkpt lat="45.25067" lon="5.68223">
        <ele>683</ele>
        <time>2012-05-03T14:48:42Z</time>
      </trkpt>
      <trkpt lat="45.25074" lon="5.68228">
        <ele>683</ele>
        <time>2012-05-03T14:48:44Z</time>
      </trkpt>
      <trkpt lat="45.2508" lon="5.68236">
        <ele>685</ele>
        <time>2012-05-03T14:48:47Z</time>
      </trkpt>
      <trkpt lat="45.25084" lon="5.68248">
        <ele>686</ele>
        <time>2012-05-03T14:48:50Z</time>
      </trkpt>
      <trkpt lat="45.25087" lon="5.68259">
        <ele>685</ele>
        <time>2012-05-03T14:48:53Z</time>
      </trkpt>
      <trkpt lat="45.25089" lon="5.68269">
        <ele>685</ele>
        <time>2012-05-03T14:48:56Z</time>
      </trkpt>
      <trkpt lat="45.25093" lon="5.68281">
        <ele>684</ele>
        <time>2012-05-03T14:49:00Z</time>
      </trkpt>
      <trkpt lat="45.25095" lon="5.68293">
        <ele>682</ele>
        <time>2012-05-03T14:49:03Z</time>
      </trkpt>
      <trkpt lat="45.25096" lon="5.68303">
        <ele>682</ele>
        <time>2012-05-03T14:49:07Z</time>
      </trkpt>
      <trkpt lat="45.25098" lon="5.68313">
        <ele>682</ele>
        <time>2012-05-03T14:49:09Z</time>
      </trkpt>
      <trkpt lat="45.251" lon="5.68323">
        <ele>682</ele>
        <time>2012-05-03T14:49:13Z</time>
      </trkpt>
      <trkpt lat="45.25101" lon="5.68334">
        <ele>685</ele>
        <time>2012-05-03T14:49:15Z</time>
      </trkpt>
      <trkpt lat="45.251" lon="5.68344">
        <ele>688</ele>
        <time>2012-05-03T14:49:18Z</time>
      </trkpt>
      <trkpt lat="45.251" lon="5.68354">
        <ele>687</ele>
        <time>2012-05-03T14:49:21Z</time>
      </trkpt>
      <trkpt lat="45.25099" lon="5.68366">
        <ele>686</ele>
        <time>2012-05-03T14:49:24Z</time>
      </trkpt>
      <trkpt lat="45.251" lon="5.6837">
        <ele>687</ele>
        <time>2012-05-03T14:49:25Z</time>
      </trkpt>
      <trkpt lat="45.25102" lon="5.68384">
        <ele>687</ele>
        <time>2012-05-03T14:49:29Z</time>
      </trkpt>
      <trkpt lat="45.25103" lon="5.68392">
        <ele>685</ele>
        <time>2012-05-03T14:49:31Z</time>
      </trkpt>
      <trkpt lat="45.25105" lon="5.68401">
        <ele>684</ele>
        <time>2012-05-03T14:49:32Z</time>
      </trkpt>
      <trkpt lat="45.25108" lon="5.68412">
        <ele>684</ele>
        <time>2012-05-03T14:49:35Z</time>
      </trkpt>
      <trkpt lat="45.2511" lon="5.68424">
        <ele>685</ele>
        <time>2012-05-03T14:49:39Z</time>
      </trkpt>
      <trkpt lat="45.25112" lon="5.68435">
        <ele>684</ele>
        <time>2012-05-03T14:49:44Z</time>
      </trkpt>
      <trkpt lat="45.25115" lon="5.68447">
        <ele>683</ele>
        <time>2012-05-03T14:49:50Z</time>
      </trkpt>
      <trkpt lat="45.25117" lon="5.68458">
        <ele>680</ele>
        <time>2012-05-03T14:49:55Z</time>
      </trkpt>
      <trkpt lat="45.25124" lon="5.68465">
        <ele>680</ele>
        <time>2012-05-03T14:49:58Z</time>
      </trkpt>
      <trkpt lat="45.2513" lon="5.68473">
        <ele>683</ele>
        <time>2012-05-03T14:50:02Z</time>
      </trkpt>
      <trkpt lat="45.25134" lon="5.68483">
        <ele>682</ele>
        <time>2012-05-03T14:50:04Z</time>
      </trkpt>
      <trkpt lat="45.25139" lon="5.68491">
        <ele>682</ele>
        <time>2012-05-03T14:50:07Z</time>
      </trkpt>
      <trkpt lat="45.25143" lon="5.68499">
        <ele>681</ele>
        <time>2012-05-03T14:50:10Z</time>
      </trkpt>
      <trkpt lat="45.25146" lon="5.68508">
        <ele>682</ele>
        <time>2012-05-03T14:50:14Z</time>
      </trkpt>
      <trkpt lat="45.25152" lon="5.68516">
        <ele>689</ele>
        <time>2012-05-03T14:50:16Z</time>
      </trkpt>
      <trkpt lat="45.25157" lon="5.68524">
        <ele>688</ele>
        <time>2012-05-03T14:50:19Z</time>
      </trkpt>
      <trkpt lat="45.25162" lon="5.68534">
        <ele>689</ele>
        <time>2012-05-03T14:50:22Z</time>
      </trkpt>
      <trkpt lat="45.25167" lon="5.68544">
        <ele>687</ele>
        <time>2012-05-03T14:50:25Z</time>
      </trkpt>
      <trkpt lat="45.25168" lon="5.68548">
        <ele>687</ele>
        <time>2012-05-03T14:50:26Z</time>
      </trkpt>
      <trkpt lat="45.25177" lon="5.6856">
        <ele>682</ele>
        <time>2012-05-03T14:50:32Z</time>
      </trkpt>
      <trkpt lat="45.25183" lon="5.68566">
        <ele>681</ele>
        <time>2012-05-03T14:50:35Z</time>
      </trkpt>
      <trkpt lat="45.25188" lon="5.68575">
        <ele>680</ele>
        <time>2012-05-03T14:50:38Z</time>
      </trkpt>
      <trkpt lat="45.25192" lon="5.68586">
        <ele>680</ele>
        <time>2012-05-03T14:50:42Z</time>
      </trkpt>
      <trkpt lat="45.25192" lon="5.68596">
        <ele>678</ele>
        <time>2012-05-03T14:50:43Z</time>
      </trkpt>
      <trkpt lat="45.25193" lon="5.68604">
        <ele>677</ele>
        <time>2012-05-03T14:50:45Z</time>
      </trkpt>
      <trkpt lat="45.25195" lon="5.68617">
        <ele>671</ele>
        <time>2012-05-03T14:50:48Z</time>
      </trkpt>
      <trkpt lat="45.25195" lon="5.68628">
        <ele>670</ele>
        <time>2012-05-03T14:50:51Z</time>
      </trkpt>
      <trkpt lat="45.25194" lon="5.68641">
        <ele>673</ele>
        <time>2012-05-03T14:50:54Z</time>
      </trkpt>
      <trkpt lat="45.25193" lon="5.68649">
        <ele>672</ele>
        <time>2012-05-03T14:50:56Z</time>
      </trkpt>
      <trkpt lat="45.25193" lon="5.68657">
        <ele>672</ele>
        <time>2012-05-03T14:50:59Z</time>
      </trkpt>
      <trkpt lat="45.25193" lon="5.68665">
        <ele>671</ele>
        <time>2012-05-03T14:50:59Z</time>
      </trkpt>
      <trkpt lat="45.25195" lon="5.68675">
        <ele>668</ele>
        <time>2012-05-03T14:51:02Z</time>
      </trkpt>
      <trkpt lat="45.25196" lon="5.68683">
        <ele>667</ele>
        <time>2012-05-03T14:51:03Z</time>
      </trkpt>
      <trkpt lat="45.25198" lon="5.68694">
        <ele>667</ele>
        <time>2012-05-03T14:51:04Z</time>
      </trkpt>
      <trkpt lat="45.25202" lon="5.68704">
        <ele>668</ele>
        <time>2012-05-03T14:51:06Z</time>
      </trkpt>
      <trkpt lat="45.25205" lon="5.68713">
        <ele>666</ele>
        <time>2012-05-03T14:51:08Z</time>
      </trkpt>
      <trkpt lat="45.2521" lon="5.68722">
        <ele>666</ele>
        <time>2012-05-03T14:51:11Z</time>
      </trkpt>
      <trkpt lat="45.25215" lon="5.68731">
        <ele>666</ele>
        <time>2012-05-03T14:51:15Z</time>
      </trkpt>
      <trkpt lat="45.25214" lon="5.68743">
        <ele>654</ele>
        <time>2012-05-03T14:51:22Z</time>
      </trkpt>
      <trkpt lat="45.25209" lon="5.6875">
        <ele>648</ele>
        <time>2012-05-03T14:51:26Z</time>
      </trkpt>
      <trkpt lat="45.25207" lon="5.68752">
        <ele>648</ele>
        <time>2012-05-03T14:51:27Z</time>
      </trkpt>
      <trkpt lat="45.25194" lon="5.68761">
        <ele>643</ele>
        <time>2012-05-03T14:51:32Z</time>
      </trkpt>
      <trkpt lat="45.25187" lon="5.68766">
        <ele>643</ele>
        <time>2012-05-03T14:51:34Z</time>
      </trkpt>
      <trkpt lat="45.25182" lon="5.68773">
        <ele>643</ele>
        <time>2012-05-03T14:51:37Z</time>
      </trkpt>
      <trkpt lat="45.25177" lon="5.68783">
        <ele>640</ele>
        <time>2012-05-03T14:51:40Z</time>
      </trkpt>
      <trkpt lat="45.25176" lon="5.68793">
        <ele>638</ele>
        <time>2012-05-03T14:51:43Z</time>
      </trkpt>
      <trkpt lat="45.25175" lon="5.68803">
        <ele>636</ele>
        <time>2012-05-03T14:51:46Z</time>
      </trkpt>
      <trkpt lat="45.25174" lon="5.68812">
        <ele>636</ele>
        <time>2012-05-03T14:51:48Z</time>
      </trkpt>
      <trkpt lat="45.25171" lon="5.68824">
        <ele>629</ele>
        <time>2012-05-03T14:51:53Z</time>
      </trkpt>
      <trkpt lat="45.25165" lon="5.6883">
        <ele>629</ele>
        <time>2012-05-03T14:51:55Z</time>
      </trkpt>
      <trkpt lat="45.25157" lon="5.68828">
        <ele>619</ele>
        <time>2012-05-03T14:52:03Z</time>
      </trkpt>
      <trkpt lat="45.2515" lon="5.68831">
        <ele>618</ele>
        <time>2012-05-03T14:52:09Z</time>
      </trkpt>
      <trkpt lat="45.25142" lon="5.68834">
        <ele>616</ele>
        <time>2012-05-03T14:52:14Z</time>
      </trkpt>
      <trkpt lat="45.25136" lon="5.68842">
        <ele>613</ele>
        <time>2012-05-03T14:52:22Z</time>
      </trkpt>
      <trkpt lat="45.25135" lon="5.68854">
        <ele>611</ele>
        <time>2012-05-03T14:52:28Z</time>
      </trkpt>
      <trkpt lat="45.25135" lon="5.68856">
        <ele>611</ele>
        <time>2012-05-03T14:52:29Z</time>
      </trkpt>
      <trkpt lat="45.25124" lon="5.68872">
        <ele>594</ele>
        <time>2012-05-03T14:52:43Z</time>
      </trkpt>
      <trkpt lat="45.25116" lon="5.68868">
        <ele>593</ele>
        <time>2012-05-03T14:52:49Z</time>
      </trkpt>
      <trkpt lat="45.25108" lon="5.68872">
        <ele>587</ele>
        <time>2012-05-03T14:52:59Z</time>
      </trkpt>
      <trkpt lat="45.25099" lon="5.68871">
        <ele>580</ele>
        <time>2012-05-03T14:53:08Z</time>
      </trkpt>
      <trkpt lat="45.25091" lon="5.68869">
        <ele>580</ele>
        <time>2012-05-03T14:53:15Z</time>
      </trkpt>
      <trkpt lat="45.25086" lon="5.68875">
        <ele>580</ele>
        <time>2012-05-03T14:53:27Z</time>
      </trkpt>
      <trkpt lat="45.25079" lon="5.68881">
        <ele>579</ele>
        <time>2012-05-03T14:53:32Z</time>
      </trkpt>
      <trkpt lat="45.25077" lon="5.6888">
        <ele>578</ele>
        <time>2012-05-03T14:53:33Z</time>
      </trkpt>
      <trkpt lat="45.25065" lon="5.6887">
        <ele>571</ele>
        <time>2012-05-03T14:53:41Z</time>
      </trkpt>
      <trkpt lat="45.25061" lon="5.68882">
        <ele>569</ele>
        <time>2012-05-03T14:53:47Z</time>
      </trkpt>
      <trkpt lat="45.25059" lon="5.68892">
        <ele>569</ele>
        <time>2012-05-03T14:53:51Z</time>
      </trkpt>
      <trkpt lat="45.25055" lon="5.689">
        <ele>568</ele>
        <time>2012-05-03T14:53:53Z</time>
      </trkpt>
      <trkpt lat="45.2505" lon="5.68906">
        <ele>567</ele>
        <time>2012-05-03T14:53:57Z</time>
      </trkpt>
      <trkpt lat="45.25043" lon="5.6891">
        <ele>567</ele>
        <time>2012-05-03T14:53:59Z</time>
      </trkpt>
      <trkpt lat="45.25038" lon="5.68915">
        <ele>564</ele>
        <time>2012-05-03T14:54:02Z</time>
      </trkpt>
      <trkpt lat="45.2503" lon="5.68919">
        <ele>564</ele>
        <time>2012-05-03T14:54:06Z</time>
      </trkpt>
      <trkpt lat="45.25023" lon="5.68924">
        <ele>554</ele>
        <time>2012-05-03T14:54:08Z</time>
      </trkpt>
      <trkpt lat="45.25015" lon="5.68929">
        <ele>549</ele>
        <time>2012-05-03T14:54:12Z</time>
      </trkpt>
      <trkpt lat="45.25007" lon="5.68928">
        <ele>550</ele>
        <time>2012-05-03T14:54:19Z</time>
      </trkpt>
      <trkpt lat="45.24999" lon="5.68931">
        <ele>545</ele>
        <time>2012-05-03T14:54:26Z</time>
      </trkpt>
      <trkpt lat="45.24991" lon="5.6893">
        <ele>544</ele>
        <time>2012-05-03T14:54:31Z</time>
      </trkpt>
      <trkpt lat="45.24984" lon="5.68933">
        <ele>544</ele>
        <time>2012-05-03T14:54:35Z</time>
      </trkpt>
      <trkpt lat="45.24982" lon="5.68933">
        <ele>544</ele>
        <time>2012-05-03T14:54:35Z</time>
      </trkpt>
      <trkpt lat="45.24968" lon="5.68932">
        <ele>539</ele>
        <time>2012-05-03T14:54:42Z</time>
      </trkpt>
      <trkpt lat="45.2496" lon="5.68932">
        <ele>537</ele>
        <time>2012-05-03T14:54:44Z</time>
      </trkpt>
      <trkpt lat="45.24952" lon="5.68936">
        <ele>536</ele>
        <time>2012-05-03T14:54:49Z</time>
      </trkpt>
      <trkpt lat="45.24946" lon="5.68942">
        <ele>534</ele>
        <time>2012-05-03T14:54:51Z</time>
      </trkpt>
      <trkpt lat="45.24939" lon="5.68944">
        <ele>533</ele>
        <time>2012-05-03T14:54:55Z</time>
      </trkpt>
      <trkpt lat="45.24931" lon="5.68943">
        <ele>531</ele>
        <time>2012-05-03T14:54:58Z</time>
      </trkpt>
      <trkpt lat="45.24923" lon="5.68939">
        <ele>531</ele>
        <time>2012-05-03T14:55:00Z</time>
      </trkpt>
      <trkpt lat="45.24916" lon="5.68935">
        <ele>530</ele>
        <time>2012-05-03T14:55:03Z</time>
      </trkpt>
      <trkpt lat="45.24909" lon="5.68933">
        <ele>527</ele>
        <time>2012-05-03T14:55:07Z</time>
      </trkpt>
      <trkpt lat="45.24903" lon="5.68929">
        <ele>525</ele>
        <time>2012-05-03T14:55:10Z</time>
      </trkpt>
      <trkpt lat="45.24896" lon="5.68925">
        <ele>524</ele>
        <time>2012-05-03T14:55:13Z</time>
      </trkpt>
      <trkpt lat="45.24891" lon="5.68923">
        <ele>523</ele>
        <time>2012-05-03T14:55:15Z</time>
      </trkpt>
      <trkpt lat="45.24884" lon="5.68919">
        <ele>524</ele>
        <time>2012-05-03T14:55:17Z</time>
      </trkpt>
      <trkpt lat="45.24877" lon="5.68915">
        <ele>523</ele>
        <time>2012-05-03T14:55:19Z</time>
      </trkpt>
      <trkpt lat="45.24869" lon="5.68913">
        <ele>522</ele>
        <time>2012-05-03T14:55:23Z</time>
      </trkpt>
      <trkpt lat="45.24861" lon="5.68912">
        <ele>520</ele>
        <time>2012-05-03T14:55:25Z</time>
      </trkpt>
      <trkpt lat="45.24854" lon="5.68912">
        <ele>517</ele>
        <time>2012-05-03T14:55:29Z</time>
      </trkpt>
      <trkpt lat="45.24847" lon="5.68915">
        <ele>516</ele>
        <time>2012-05-03T14:55:31Z</time>
      </trkpt>
      <trkpt lat="45.2484" lon="5.68918">
        <ele>514</ele>
        <time>2012-05-03T14:55:35Z</time>
      </trkpt>
      <trkpt lat="45.24833" lon="5.6892">
        <ele>513</ele>
        <time>2012-05-03T14:55:38Z</time>
      </trkpt>
      <trkpt lat="45.24831" lon="5.68919">
        <ele>512</ele>
        <time>2012-05-03T14:55:39Z</time>
      </trkpt>
      <trkpt lat="45.24819" lon="5.68917">
        <ele>508</ele>
        <time>2012-05-03T14:55:43Z</time>
      </trkpt>
      <trkpt lat="45.24811" lon="5.68915">
        <ele>507</ele>
        <time>2012-05-03T14:55:46Z</time>
      </trkpt>
      <trkpt lat="45.24803" lon="5.68911">
        <ele>507</ele>
        <time>2012-05-03T14:55:50Z</time>
      </trkpt>
      <trkpt lat="45.24796" lon="5.68906">
        <ele>507</ele>
        <time>2012-05-03T14:55:52Z</time>
      </trkpt>
      <trkpt lat="45.24788" lon="5.68901">
        <ele>507</ele>
        <time>2012-05-03T14:55:55Z</time>
      </trkpt>
      <trkpt lat="45.24781" lon="5.68897">
        <ele>504</ele>
        <time>2012-05-03T14:55:58Z</time>
      </trkpt>
      <trkpt lat="45.24774" lon="5.68896">
        <ele>502</ele>
        <time>2012-05-03T14:56:01Z</time>
      </trkpt>
      <trkpt lat="45.24767" lon="5.68892">
        <ele>498</ele>
        <time>2012-05-03T14:56:06Z</time>
      </trkpt>
      <trkpt lat="45.24759" lon="5.68897">
        <ele>496</ele>
        <time>2012-05-03T14:56:30Z</time>
      </trkpt>
      <trkpt lat="45.24756" lon="5.68907">
        <ele>503</ele>
        <time>2012-05-03T14:57:03Z</time>
      </trkpt>
      <trkpt lat="45.24755" lon="5.6891">
        <ele>503</ele>
        <time>2012-05-03T14:57:04Z</time>
      </trkpt>
      <trkpt lat="45.24754" lon="5.68928">
        <ele>506</ele>
        <time>2012-05-03T14:57:10Z</time>
      </trkpt>
      <trkpt lat="45.24758" lon="5.68939">
        <ele>509</ele>
        <time>2012-05-03T14:57:12Z</time>
      </trkpt>
      <trkpt lat="45.2476" lon="5.68951">
        <ele>507</ele>
        <time>2012-05-03T14:57:15Z</time>
      </trkpt>
      <trkpt lat="45.24764" lon="5.68958">
        <ele>497</ele>
        <time>2012-05-03T14:57:17Z</time>
      </trkpt>
      <trkpt lat="45.24769" lon="5.68964">
        <ele>496</ele>
        <time>2012-05-03T14:57:19Z</time>
      </trkpt>
      <trkpt lat="45.24777" lon="5.68968">
        <ele>496</ele>
        <time>2012-05-03T14:57:22Z</time>
      </trkpt>
      <trkpt lat="45.24785" lon="5.68973">
        <ele>498</ele>
        <time>2012-05-03T14:57:26Z</time>
      </trkpt>
      <trkpt lat="45.24791" lon="5.68978">
        <ele>496</ele>
        <time>2012-05-03T14:57:29Z</time>
      </trkpt>
      <trkpt lat="45.24795" lon="5.68987">
        <ele>498</ele>
        <time>2012-05-03T14:57:33Z</time>
      </trkpt>
      <trkpt lat="45.24801" lon="5.68991">
        <ele>502</ele>
        <time>2012-05-03T14:57:35Z</time>
      </trkpt>
      <trkpt lat="45.24809" lon="5.68993">
        <ele>505</ele>
        <time>2012-05-03T14:57:38Z</time>
      </trkpt>
      <trkpt lat="45.24817" lon="5.68996">
        <ele>505</ele>
        <time>2012-05-03T14:57:42Z</time>
      </trkpt>
      <trkpt lat="45.24822" lon="5.69005">
        <ele>501</ele>
        <time>2012-05-03T14:57:48Z</time>
      </trkpt>
      <trkpt lat="45.24827" lon="5.69013">
        <ele>503</ele>
        <time>2012-05-03T14:57:55Z</time>
      </trkpt>
      <trkpt lat="45.2483" lon="5.69023">
        <ele>501</ele>
        <time>2012-05-03T14:57:58Z</time>
      </trkpt>
      <trkpt lat="45.24832" lon="5.69033">
        <ele>501</ele>
        <time>2012-05-03T14:58:01Z</time>
      </trkpt>
      <trkpt lat="45.24836" lon="5.69043">
        <ele>498</ele>
        <time>2012-05-03T14:58:03Z</time>
      </trkpt>
      <trkpt lat="45.24838" lon="5.69046">
        <ele>498</ele>
        <time>2012-05-03T14:58:04Z</time>
      </trkpt>
      <trkpt lat="45.24845" lon="5.69058">
        <ele>498</ele>
        <time>2012-05-03T14:58:09Z</time>
      </trkpt>
      <trkpt lat="45.24848" lon="5.69065">
        <ele>497</ele>
        <time>2012-05-03T14:58:11Z</time>
      </trkpt>
      <trkpt lat="45.24852" lon="5.69074">
        <ele>497</ele>
        <time>2012-05-03T14:58:13Z</time>
      </trkpt>
      <trkpt lat="45.24857" lon="5.69083">
        <ele>496</ele>
        <time>2012-05-03T14:58:16Z</time>
      </trkpt>
      <trkpt lat="45.24864" lon="5.69088">
        <ele>497</ele>
        <time>2012-05-03T14:58:19Z</time>
      </trkpt>
      <trkpt lat="45.2487" lon="5.69097">
        <ele>496</ele>
        <time>2012-05-03T14:58:22Z</time>
      </trkpt>
      <trkpt lat="45.24877" lon="5.69103">
        <ele>494</ele>
        <time>2012-05-03T14:58:26Z</time>
      </trkpt>
      <trkpt lat="45.24883" lon="5.6911">
        <ele>493</ele>
        <time>2012-05-03T14:58:30Z</time>
      </trkpt>
      <trkpt lat="45.24889" lon="5.69116">
        <ele>494</ele>
        <time>2012-05-03T14:58:32Z</time>
      </trkpt>
      <trkpt lat="45.24896" lon="5.69121">
        <ele>488</ele>
        <time>2012-05-03T14:58:36Z</time>
      </trkpt>
      <trkpt lat="45.24903" lon="5.69124">
        <ele>487</ele>
        <time>2012-05-03T14:58:40Z</time>
      </trkpt>
      <trkpt lat="45.24908" lon="5.69129">
        <ele>488</ele>
        <time>2012-05-03T14:58:43Z</time>
      </trkpt>
      <trkpt lat="45.2491" lon="5.69137">
        <ele>488</ele>
        <time>2012-05-03T14:58:45Z</time>
      </trkpt>
      <trkpt lat="45.24912" lon="5.69147">
        <ele>487</ele>
        <time>2012-05-03T14:58:47Z</time>
      </trkpt>
      <trkpt lat="45.24915" lon="5.69154">
        <ele>486</ele>
        <time>2012-05-03T14:58:48Z</time>
      </trkpt>
      <trkpt lat="45.24918" lon="5.69159">
        <ele>485</ele>
        <time>2012-05-03T14:58:49Z</time>
      </trkpt>
      <trkpt lat="45.24924" lon="5.69167">
        <ele>484</ele>
        <time>2012-05-03T14:58:51Z</time>
      </trkpt>
      <trkpt lat="45.24928" lon="5.69178">
        <ele>487</ele>
        <time>2012-05-03T14:58:55Z</time>
      </trkpt>
      <trkpt lat="45.24927" lon="5.6919">
        <ele>484</ele>
        <time>2012-05-03T14:58:59Z</time>
      </trkpt>
      <trkpt lat="45.24933" lon="5.69199">
        <ele>483</ele>
        <time>2012-05-03T14:59:02Z</time>
      </trkpt>
      <trkpt lat="45.2494" lon="5.69205">
        <ele>482</ele>
        <time>2012-05-03T14:59:05Z</time>
      </trkpt>
      <trkpt lat="45.24941" lon="5.69207">
        <ele>482</ele>
        <time>2012-05-03T14:59:06Z</time>
      </trkpt>
      <trkpt lat="45.24941" lon="5.69221">
        <ele>467</ele>
        <time>2012-05-03T14:59:18Z</time>
      </trkpt>
      <trkpt lat="45.24936" lon="5.6923">
        <ele>465</ele>
        <time>2012-05-03T14:59:24Z</time>
      </trkpt>
      <trkpt lat="45.24932" lon="5.69239">
        <ele>466</ele>
        <time>2012-05-03T14:59:27Z</time>
      </trkpt>
      <trkpt lat="45.24929" lon="5.69249">
        <ele>465</ele>
        <time>2012-05-03T14:59:29Z</time>
      </trkpt>
      <trkpt lat="45.24926" lon="5.69259">
        <ele>465</ele>
        <time>2012-05-03T14:59:32Z</time>
      </trkpt>
      <trkpt lat="45.24922" lon="5.69271">
        <ele>463</ele>
        <time>2012-05-03T14:59:36Z</time>
      </trkpt>
      <trkpt lat="45.24921" lon="5.69283">
        <ele>463</ele>
        <time>2012-05-03T14:59:40Z</time>
      </trkpt>
      <trkpt lat="45.24914" lon="5.69289">
        <ele>458</ele>
        <time>2012-05-03T14:59:43Z</time>
      </trkpt>
      <trkpt lat="45.24909" lon="5.69291">
        <ele>458</ele>
        <time>2012-05-03T14:59:45Z</time>
      </trkpt>
      <trkpt lat="45.24902" lon="5.69296">
        <ele>452</ele>
        <time>2012-05-03T14:59:47Z</time>
      </trkpt>
      <trkpt lat="45.24897" lon="5.69301">
        <ele>449</ele>
        <time>2012-05-03T14:59:49Z</time>
      </trkpt>
      <trkpt lat="45.24889" lon="5.69306">
        <ele>445</ele>
        <time>2012-05-03T14:59:53Z</time>
      </trkpt>
      <trkpt lat="45.24881" lon="5.69308">
        <ele>443</ele>
        <time>2012-05-03T14:59:57Z</time>
      </trkpt>
      <trkpt lat="45.24875" lon="5.69312">
        <ele>441</ele>
        <time>2012-05-03T15:00:00Z</time>
      </trkpt>
      <trkpt lat="45.24867" lon="5.69315">
        <ele>438</ele>
        <time>2012-05-03T15:00:03Z</time>
      </trkpt>
      <trkpt lat="45.2486" lon="5.69315">
        <ele>434</ele>
        <time>2012-05-03T15:00:06Z</time>
      </trkpt>
      <trkpt lat="45.24854" lon="5.69314">
        <ele>433</ele>
        <time>2012-05-03T15:00:09Z</time>
      </trkpt>
      <trkpt lat="45.24851" lon="5.69314">
        <ele>433</ele>
        <time>2012-05-03T15:00:09Z</time>
      </trkpt>
      <trkpt lat="45.24839" lon="5.69313">
        <ele>432</ele>
        <time>2012-05-03T15:00:13Z</time>
      </trkpt>
      <trkpt lat="45.24833" lon="5.69312">
        <ele>432</ele>
        <time>2012-05-03T15:00:15Z</time>
      </trkpt>
      <trkpt lat="45.24826" lon="5.6931">
        <ele>432</ele>
        <time>2012-05-03T15:00:18Z</time>
      </trkpt>
      <trkpt lat="45.2482" lon="5.69307">
        <ele>433</ele>
        <time>2012-05-03T15:00:19Z</time>
      </trkpt>
      <trkpt lat="45.24812" lon="5.69304">
        <ele>435</ele>
        <time>2012-05-03T15:00:22Z</time>
      </trkpt>
      <trkpt lat="45.24808" lon="5.69303">
        <ele>434</ele>
        <time>2012-05-03T15:00:23Z</time>
      </trkpt>
      <trkpt lat="45.24802" lon="5.693">
        <ele>430</ele>
        <time>2012-05-03T15:00:24Z</time>
      </trkpt>
      <trkpt lat="45.24793" lon="5.69298">
        <ele>427</ele>
        <time>2012-05-03T15:00:27Z</time>
      </trkpt>
      <trkpt lat="45.24786" lon="5.69298">
        <ele>427</ele>
        <time>2012-05-03T15:00:31Z</time>
      </trkpt>
      <trkpt lat="45.24777" lon="5.69296">
        <ele>425</ele>
        <time>2012-05-03T15:00:35Z</time>
      </trkpt>
      <trkpt lat="45.2477" lon="5.69297">
        <ele>424</ele>
        <time>2012-05-03T15:00:37Z</time>
      </trkpt>
      <trkpt lat="45.24763" lon="5.69298">
        <ele>422</ele>
        <time>2012-05-03T15:00:41Z</time>
      </trkpt>
      <trkpt lat="45.24755" lon="5.69297">
        <ele>422</ele>
        <time>2012-05-03T15:00:43Z</time>
      </trkpt>
      <trkpt lat="45.24749" lon="5.69295">
        <ele>422</ele>
        <time>2012-05-03T15:00:45Z</time>
      </trkpt>
      <trkpt lat="45.24742" lon="5.69291">
        <ele>425</ele>
        <time>2012-05-03T15:00:47Z</time>
      </trkpt>
      <trkpt lat="45.24735" lon="5.69284">
        <ele>424</ele>
        <time>2012-05-03T15:00:50Z</time>
      </trkpt>
      <trkpt lat="45.24729" lon="5.69277">
        <ele>423</ele>
        <time>2012-05-03T15:00:51Z</time>
      </trkpt>
      <trkpt lat="45.24723" lon="5.69271">
        <ele>422</ele>
        <time>2012-05-03T15:00:53Z</time>
      </trkpt>
      <trkpt lat="45.24717" lon="5.69265">
        <ele>418</ele>
        <time>2012-05-03T15:00:56Z</time>
      </trkpt>
      <trkpt lat="45.2471" lon="5.69259">
        <ele>417</ele>
        <time>2012-05-03T15:01:01Z</time>
      </trkpt>
      <trkpt lat="45.24704" lon="5.69254">
        <ele>416</ele>
        <time>2012-05-03T15:01:04Z</time>
      </trkpt>
      <trkpt lat="45.24697" lon="5.69249">
        <ele>417</ele>
        <time>2012-05-03T15:01:07Z</time>
      </trkpt>
      <trkpt lat="45.24691" lon="5.69244">
        <ele>418</ele>
        <time>2012-05-03T15:01:10Z</time>
      </trkpt>
      <trkpt lat="45.24688" lon="5.69242">
        <ele>418</ele>
        <time>2012-05-03T15:01:11Z</time>
      </trkpt>
      <trkpt lat="45.24679" lon="5.69234">
        <ele>420</ele>
        <time>2012-05-03T15:01:15Z</time>
      </trkpt>
      <trkpt lat="45.24673" lon="5.69227">
        <ele>412</ele>
        <time>2012-05-03T15:01:19Z</time>
      </trkpt>
      <trkpt lat="45.24668" lon="5.69221">
        <ele>410</ele>
        <time>2012-05-03T15:01:21Z</time>
      </trkpt>
      <trkpt lat="45.24663" lon="5.69214">
        <ele>410</ele>
        <time>2012-05-03T15:01:24Z</time>
      </trkpt>
      <trkpt lat="45.24658" lon="5.69208">
        <ele>410</ele>
        <time>2012-05-03T15:01:25Z</time>
      </trkpt>
      <trkpt lat="45.24651" lon="5.69202">
        <ele>409</ele>
        <time>2012-05-03T15:01:27Z</time>
      </trkpt>
      <trkpt lat="45.24644" lon="5.69198">
        <ele>409</ele>
        <time>2012-05-03T15:01:30Z</time>
      </trkpt>
      <trkpt lat="45.24638" lon="5.69192">
        <ele>409</ele>
        <time>2012-05-03T15:01:34Z</time>
      </trkpt>
      <trkpt lat="45.24631" lon="5.69187">
        <ele>404</ele>
        <time>2012-05-03T15:01:37Z</time>
      </trkpt>
      <trkpt lat="45.24624" lon="5.69181">
        <ele>404</ele>
        <time>2012-05-03T15:01:41Z</time>
      </trkpt>
      <trkpt lat="45.24616" lon="5.69175">
        <ele>402</ele>
        <time>2012-05-03T15:01:46Z</time>
      </trkpt>
      <trkpt lat="45.2461" lon="5.69174">
        <ele>402</ele>
        <time>2012-05-03T15:01:49Z</time>
      </trkpt>
      <trkpt lat="45.24601" lon="5.69171">
        <ele>403</ele>
        <time>2012-05-03T15:01:52Z</time>
      </trkpt>
      <trkpt lat="45.24593" lon="5.69168">
        <ele>404</ele>
        <time>2012-05-03T15:01:55Z</time>
      </trkpt>
      <trkpt lat="45.24585" lon="5.69164">
        <ele>401</ele>
        <time>2012-05-03T15:02:00Z</time>
      </trkpt>
      <trkpt lat="45.24578" lon="5.69163">
        <ele>399</ele>
        <time>2012-05-03T15:02:03Z</time>
      </trkpt>
      <trkpt lat="45.2457" lon="5.69161">
        <ele>399</ele>
        <time>2012-05-03T15:02:07Z</time>
      </trkpt>
      <trkpt lat="45.24562" lon="5.6916">
        <ele>399</ele>
        <time>2012-05-03T15:02:11Z</time>
      </trkpt>
      <trkpt lat="45.2456" lon="5.69159">
        <ele>399</ele>
        <time>2012-05-03T15:02:11Z</time>
      </trkpt>
      <trkpt lat="45.24547" lon="5.69151">
        <ele>396</ele>
        <time>2012-05-03T15:02:19Z</time>
      </trkpt>
      <trkpt lat="45.24538" lon="5.69148">
        <ele>393</ele>
        <time>2012-05-03T15:02:22Z</time>
      </trkpt>
      <trkpt lat="45.24531" lon="5.69144">
        <ele>392</ele>
        <time>2012-05-03T15:02:25Z</time>
      </trkpt>
      <trkpt lat="45.24524" lon="5.6914">
        <ele>391</ele>
        <time>2012-05-03T15:02:28Z</time>
      </trkpt>
      <trkpt lat="45.24516" lon="5.69135">
        <ele>392</ele>
        <time>2012-05-03T15:02:31Z</time>
      </trkpt>
      <trkpt lat="45.24507" lon="5.69132">
        <ele>390</ele>
        <time>2012-05-03T15:02:34Z</time>
      </trkpt>
      <trkpt lat="45.24501" lon="5.6913">
        <ele>387</ele>
        <time>2012-05-03T15:02:36Z</time>
      </trkpt>
      <trkpt lat="45.24492" lon="5.69126">
        <ele>388</ele>
        <time>2012-05-03T15:02:39Z</time>
      </trkpt>
      <trkpt lat="45.24486" lon="5.69118">
        <ele>385</ele>
        <time>2012-05-03T15:02:51Z</time>
      </trkpt>
      <trkpt lat="45.24478" lon="5.69115">
        <ele>385</ele>
        <time>2012-05-03T15:02:55Z</time>
      </trkpt>
      <trkpt lat="45.2447" lon="5.69111">
        <ele>382</ele>
        <time>2012-05-03T15:02:59Z</time>
      </trkpt>
      <trkpt lat="45.24463" lon="5.69116">
        <ele>380</ele>
        <time>2012-05-03T15:03:05Z</time>
      </trkpt>
      <trkpt lat="45.24456" lon="5.69113">
        <ele>379</ele>
        <time>2012-05-03T15:03:09Z</time>
      </trkpt>
      <trkpt lat="45.24448" lon="5.69109">
        <ele>378</ele>
        <time>2012-05-03T15:03:13Z</time>
      </trkpt>
      <trkpt lat="45.24446" lon="5.69108">
        <ele>379</ele>
        <time>2012-05-03T15:03:14Z</time>
      </trkpt>
      <trkpt lat="45.24431" lon="5.69102">
        <ele>377</ele>
        <time>2012-05-03T15:03:23Z</time>
      </trkpt>
      <trkpt lat="45.24424" lon="5.69096">
        <ele>376</ele>
        <time>2012-05-03T15:03:27Z</time>
      </trkpt>
      <trkpt lat="45.24422" lon="5.69084">
        <ele>374</ele>
        <time>2012-05-03T15:03:36Z</time>
      </trkpt>
      <trkpt lat="45.24429" lon="5.69078">
        <ele>373</ele>
        <time>2012-05-03T15:03:42Z</time>
      </trkpt>
      <trkpt lat="45.24436" lon="5.69071">
        <ele>371</ele>
        <time>2012-05-03T15:03:50Z</time>
      </trkpt>
      <trkpt lat="45.24442" lon="5.69064">
        <ele>372</ele>
        <time>2012-05-03T15:03:56Z</time>
      </trkpt>
      <trkpt lat="45.24444" lon="5.69052">
        <ele>374</ele>
        <time>2012-05-03T15:04:01Z</time>
      </trkpt>
      <trkpt lat="45.24442" lon="5.6904">
        <ele>374</ele>
        <time>2012-05-03T15:04:08Z</time>
      </trkpt>
      <trkpt lat="45.24435" lon="5.69034">
        <ele>373</ele>
        <time>2012-05-03T15:04:14Z</time>
      </trkpt>
      <trkpt lat="45.24434" lon="5.69032">
        <ele>374</ele>
        <time>2012-05-03T15:04:15Z</time>
      </trkpt>
      <trkpt lat="45.24424" lon="5.69019">
        <ele>371</ele>
        <time>2012-05-03T15:04:22Z</time>
      </trkpt>
      <trkpt lat="45.24421" lon="5.69013">
        <ele>369</ele>
        <time>2012-05-03T15:04:24Z</time>
      </trkpt>
      <trkpt lat="45.24418" lon="5.69006">
        <ele>369</ele>
        <time>2012-05-03T15:04:25Z</time>
      </trkpt>
      <trkpt lat="45.24413" lon="5.68998">
        <ele>368</ele>
        <time>2012-05-03T15:04:27Z</time>
      </trkpt>
      <trkpt lat="45.24404" lon="5.68995">
        <ele>365</ele>
        <time>2012-05-03T15:04:30Z</time>
      </trkpt>
      <trkpt lat="45.24397" lon="5.68993">
        <ele>365</ele>
        <time>2012-05-03T15:04:34Z</time>
      </trkpt>
      <trkpt lat="45.24389" lon="5.68987">
        <ele>363</ele>
        <time>2012-05-03T15:04:42Z</time>
      </trkpt>
      <trkpt lat="45.24382" lon="5.68979">
        <ele>362</ele>
        <time>2012-05-03T15:04:52Z</time>
      </trkpt>
      <trkpt lat="45.24374" lon="5.68985">
        <ele>354</ele>
        <time>2012-05-03T15:05:19Z</time>
      </trkpt>
      <trkpt lat="45.24374" lon="5.68986">
        <ele>355</ele>
        <time>2012-05-03T15:05:20Z</time>
      </trkpt>
      <trkpt lat="45.24363" lon="5.69002">
        <ele>355</ele>
        <time>2012-05-03T15:05:34Z</time>
      </trkpt>
      <trkpt lat="45.24358" lon="5.6901">
        <ele>356</ele>
        <time>2012-05-03T15:05:35Z</time>
      </trkpt>
      <trkpt lat="45.24352" lon="5.69015">
        <ele>353</ele>
        <time>2012-05-03T15:05:38Z</time>
      </trkpt>
      <trkpt lat="45.24346" lon="5.69023">
        <ele>354</ele>
        <time>2012-05-03T15:05:41Z</time>
      </trkpt>
      <trkpt lat="45.2434" lon="5.6903">
        <ele>353</ele>
        <time>2012-05-03T15:05:44Z</time>
      </trkpt>
      <trkpt lat="45.24334" lon="5.69039">
        <ele>353</ele>
        <time>2012-05-03T15:05:47Z</time>
      </trkpt>
      <trkpt lat="45.24329" lon="5.69046">
        <ele>351</ele>
        <time>2012-05-03T15:05:51Z</time>
      </trkpt>
      <trkpt lat="45.24323" lon="5.69052">
        <ele>348</ele>
        <time>2012-05-03T15:05:55Z</time>
      </trkpt>
      <trkpt lat="45.24316" lon="5.69056">
        <ele>348</ele>
        <time>2012-05-03T15:05:58Z</time>
      </trkpt>
      <trkpt lat="45.2431" lon="5.69059">
        <ele>346</ele>
        <time>2012-05-03T15:06:01Z</time>
      </trkpt>
      <trkpt lat="45.24306" lon="5.6906">
        <ele>345</ele>
        <time>2012-05-03T15:06:03Z</time>
      </trkpt>
      <trkpt lat="45.24298" lon="5.6906">
        <ele>343</ele>
        <time>2012-05-03T15:06:05Z</time>
      </trkpt>
      <trkpt lat="45.2429" lon="5.69058">
        <ele>341</ele>
        <time>2012-05-03T15:06:09Z</time>
      </trkpt>
      <trkpt lat="45.24282" lon="5.69059">
        <ele>340</ele>
        <time>2012-05-03T15:06:13Z</time>
      </trkpt>
      <trkpt lat="45.24274" lon="5.69058">
        <ele>342</ele>
        <time>2012-05-03T15:06:16Z</time>
      </trkpt>
      <trkpt lat="45.24266" lon="5.69059">
        <ele>342</ele>
        <time>2012-05-03T15:06:19Z</time>
      </trkpt>
      <trkpt lat="45.24263" lon="5.69059">
        <ele>342</ele>
        <time>2012-05-03T15:06:20Z</time>
      </trkpt>
      <trkpt lat="45.24251" lon="5.69062">
        <ele>344</ele>
        <time>2012-05-03T15:06:25Z</time>
      </trkpt>
      <trkpt lat="45.24243" lon="5.69066">
        <ele>344</ele>
        <time>2012-05-03T15:06:30Z</time>
      </trkpt>
      <trkpt lat="45.24235" lon="5.69071">
        <ele>343</ele>
        <time>2012-05-03T15:06:34Z</time>
      </trkpt>
      <trkpt lat="45.24228" lon="5.69074">
        <ele>340</ele>
        <time>2012-05-03T15:06:40Z</time>
      </trkpt>
      <trkpt lat="45.2422" lon="5.69077">
        <ele>336</ele>
        <time>2012-05-03T15:06:43Z</time>
      </trkpt>
      <trkpt lat="45.24213" lon="5.69078">
        <ele>334</ele>
        <time>2012-05-03T15:06:45Z</time>
      </trkpt>
      <trkpt lat="45.24205" lon="5.69076">
        <ele>330</ele>
        <time>2012-05-03T15:06:49Z</time>
      </trkpt>
      <trkpt lat="45.24196" lon="5.69076">
        <ele>325</ele>
        <time>2012-05-03T15:06:55Z</time>
      </trkpt>
      <trkpt lat="45.24189" lon="5.69073">
        <ele>321</ele>
        <time>2012-05-03T15:07:00Z</time>
      </trkpt>
      <trkpt lat="45.24181" lon="5.69077">
        <ele>309</ele>
        <time>2012-05-03T15:07:07Z</time>
      </trkpt>
      <trkpt lat="45.24173" lon="5.69073">
        <ele>304</ele>
        <time>2012-05-03T15:07:13Z</time>
      </trkpt>
      <trkpt lat="45.24165" lon="5.69067">
        <ele>303</ele>
        <time>2012-05-03T15:07:20Z</time>
      </trkpt>
      <trkpt lat="45.24164" lon="5.69066">
        <ele>303</ele>
        <time>2012-05-03T15:07:21Z</time>
      </trkpt>
      <trkpt lat="45.24155" lon="5.69053">
        <ele>298</ele>
        <time>2012-05-03T15:07:28Z</time>
      </trkpt>
      <trkpt lat="45.24152" lon="5.69047">
        <ele>295</ele>
        <time>2012-05-03T15:07:31Z</time>
      </trkpt>
      <trkpt lat="45.24151" lon="5.69036">
        <ele>295</ele>
        <time>2012-05-03T15:07:33Z</time>
      </trkpt>
      <trkpt lat="45.24151" lon="5.69025">
        <ele>294</ele>
        <time>2012-05-03T15:07:36Z</time>
      </trkpt>
      <trkpt lat="45.24146" lon="5.69015">
        <ele>293</ele>
        <time>2012-05-03T15:07:41Z</time>
      </trkpt>
      <trkpt lat="45.2414" lon="5.69015">
        <ele>292</ele>
        <time>2012-05-03T15:07:44Z</time>
      </trkpt>
      <trkpt lat="45.24132" lon="5.69017">
        <ele>283</ele>
        <time>2012-05-03T15:07:47Z</time>
      </trkpt>
      <trkpt lat="45.24125" lon="5.69024">
        <ele>283</ele>
        <time>2012-05-03T15:07:54Z</time>
      </trkpt>
      <trkpt lat="45.24117" lon="5.69027">
        <ele>283</ele>
        <time>2012-05-03T15:08:02Z</time>
      </trkpt>
      <trkpt lat="45.24111" lon="5.69032">
        <ele>282</ele>
        <time>2012-05-03T15:08:06Z</time>
      </trkpt>
      <trkpt lat="45.24105" lon="5.69038">
        <ele>282</ele>
        <time>2012-05-03T15:08:10Z</time>
      </trkpt>
      <trkpt lat="45.241" lon="5.69047">
        <ele>282</ele>
        <time>2012-05-03T15:08:15Z</time>
      </trkpt>
      <trkpt lat="45.24094" lon="5.69054">
        <ele>281</ele>
        <time>2012-05-03T15:08:18Z</time>
      </trkpt>
      <trkpt lat="45.24086" lon="5.6906">
        <ele>280</ele>
        <time>2012-05-03T15:08:21Z</time>
      </trkpt>
      <trkpt lat="45.24084" lon="5.69062">
        <ele>279</ele>
        <time>2012-05-03T15:08:22Z</time>
      </trkpt>
      <trkpt lat="45.24075" lon="5.69071">
        <ele>281</ele>
        <time>2012-05-03T15:08:26Z</time>
      </trkpt>
      <trkpt lat="45.2407" lon="5.69078">
        <ele>279</ele>
        <time>2012-05-03T15:08:27Z</time>
      </trkpt>
      <trkpt lat="45.24068" lon="5.69087">
        <ele>282</ele>
        <time>2012-05-03T15:08:29Z</time>
      </trkpt>
      <trkpt lat="45.24069" lon="5.69097">
        <ele>282</ele>
        <time>2012-05-03T15:08:31Z</time>
      </trkpt>
      <trkpt lat="45.24072" lon="5.69109">
        <ele>283</ele>
        <time>2012-05-03T15:08:34Z</time>
      </trkpt>
      <trkpt lat="45.24074" lon="5.6912">
        <ele>282</ele>
        <time>2012-05-03T15:08:38Z</time>
      </trkpt>
      <trkpt lat="45.24068" lon="5.69118">
        <ele>270</ele>
        <time>2012-05-03T15:08:53Z</time>
      </trkpt>
      <trkpt lat="45.2406" lon="5.69115">
        <ele>271</ele>
        <time>2012-05-03T15:08:55Z</time>
      </trkpt>
      <trkpt lat="45.24052" lon="5.69113">
        <ele>266</ele>
        <time>2012-05-03T15:09:00Z</time>
      </trkpt>
      <trkpt lat="45.24044" lon="5.69109">
        <ele>263</ele>
        <time>2012-05-03T15:09:05Z</time>
      </trkpt>
      <trkpt lat="45.24036" lon="5.69107">
        <ele>260</ele>
        <time>2012-05-03T15:09:07Z</time>
      </trkpt>
      <trkpt lat="45.24029" lon="5.69106">
        <ele>258</ele>
        <time>2012-05-03T15:09:11Z</time>
      </trkpt>
      <trkpt lat="45.2402" lon="5.69102">
        <ele>256</ele>
        <time>2012-05-03T15:09:16Z</time>
      </trkpt>
      <trkpt lat="45.24015" lon="5.6911">
        <ele>256</ele>
        <time>2012-05-03T15:09:22Z</time>
      </trkpt>
      <trkpt lat="45.24013" lon="5.69111">
        <ele>257</ele>
        <time>2012-05-03T15:09:23Z</time>
      </trkpt>
      <trkpt lat="45.24002" lon="5.69104">
        <ele>252</ele>
        <time>2012-05-03T15:09:32Z</time>
      </trkpt>
      <trkpt lat="45.23996" lon="5.69098">
        <ele>251</ele>
        <time>2012-05-03T15:09:34Z</time>
      </trkpt>
      <trkpt lat="45.2399" lon="5.69093">
        <ele>248</ele>
        <time>2012-05-03T15:09:36Z</time>
      </trkpt>
      <trkpt lat="45.23986" lon="5.69087">
        <ele>247</ele>
        <time>2012-05-03T15:09:38Z</time>
      </trkpt>
      <trkpt lat="45.23981" lon="5.69077">
        <ele>245</ele>
        <time>2012-05-03T15:09:40Z</time>
      </trkpt>
      <trkpt lat="45.23978" lon="5.69067">
        <ele>236</ele>
        <time>2012-05-03T15:09:43Z</time>
      </trkpt>
      <trkpt lat="45.23975" lon="5.69058">
        <ele>235</ele>
        <time>2012-05-03T15:09:46Z</time>
      </trkpt>
      <trkpt lat="45.23971" lon="5.69051">
        <ele>237</ele>
        <time>2012-05-03T15:09:48Z</time>
      </trkpt>
      <trkpt lat="45.23966" lon="5.69042">
        <ele>237</ele>
        <time>2012-05-03T15:09:51Z</time>
      </trkpt>
      <trkpt lat="45.23961" lon="5.69036">
        <ele>234</ele>
        <time>2012-05-03T15:09:54Z</time>
      </trkpt>
      <trkpt lat="45.23955" lon="5.69028">
        <ele>235</ele>
        <time>2012-05-03T15:09:59Z</time>
      </trkpt>
      <trkpt lat="45.23951" lon="5.69019">
        <ele>237</ele>
        <time>2012-05-03T15:10:02Z</time>
      </trkpt>
      <trkpt lat="45.23946" lon="5.69015">
        <ele>240</ele>
        <time>2012-05-03T15:10:05Z</time>
      </trkpt>
      <trkpt lat="45.23937" lon="5.69012">
        <ele>239</ele>
        <time>2012-05-03T15:10:08Z</time>
      </trkpt>
      <trkpt lat="45.23931" lon="5.69009">
        <ele>240</ele>
        <time>2012-05-03T15:10:10Z</time>
      </trkpt>
      <trkpt lat="45.23923" lon="5.69006">
        <ele>241</ele>
        <time>2012-05-03T15:10:13Z</time>
      </trkpt>
      <trkpt lat="45.23917" lon="5.68999">
        <ele>241</ele>
        <time>2012-05-03T15:10:15Z</time>
      </trkpt>
      <trkpt lat="45.23912" lon="5.68993">
        <ele>242</ele>
        <time>2012-05-03T15:10:18Z</time>
      </trkpt>
      <trkpt lat="45.23906" lon="5.6899">
        <ele>242</ele>
        <time>2012-05-03T15:10:19Z</time>
      </trkpt>
      <trkpt lat="45.239" lon="5.68987">
        <ele>241</ele>
        <time>2012-05-03T15:10:21Z</time>
      </trkpt>
      <trkpt lat="45.23894" lon="5.68984">
        <ele>240</ele>
        <time>2012-05-03T15:10:23Z</time>
      </trkpt>
      <trkpt lat="45.23891" lon="5.68984">
        <ele>241</ele>
        <time>2012-05-03T15:10:24Z</time>
      </trkpt>
      <trkpt lat="45.23878" lon="5.68984">
        <ele>241</ele>
        <time>2012-05-03T15:10:29Z</time>
      </trkpt>
      <trkpt lat="45.23872" lon="5.68982">
        <ele>240</ele>
        <time>2012-05-03T15:10:31Z</time>
      </trkpt>
      <trkpt lat="45.23864" lon="5.68981">
        <ele>240</ele>
        <time>2012-05-03T15:10:33Z</time>
      </trkpt>
      <trkpt lat="45.23857" lon="5.6898">
        <ele>240</ele>
        <time>2012-05-03T15:10:35Z</time>
      </trkpt>
      <trkpt lat="45.23848" lon="5.68979">
        <ele>239</ele>
        <time>2012-05-03T15:10:37Z</time>
      </trkpt>
      <trkpt lat="45.2384" lon="5.68978">
        <ele>239</ele>
        <time>2012-05-03T15:10:41Z</time>
      </trkpt>
      <trkpt lat="45.23834" lon="5.68975">
        <ele>238</ele>
        <time>2012-05-03T15:10:45Z</time>
      </trkpt>
      <trkpt lat="45.23828" lon="5.68971">
        <ele>237</ele>
        <time>2012-05-03T15:10:47Z</time>
      </trkpt>
      <trkpt lat="45.23821" lon="5.68967">
        <ele>237</ele>
        <time>2012-05-03T15:10:50Z</time>
      </trkpt>
      <trkpt lat="45.23815" lon="5.68964">
        <ele>238</ele>
        <time>2012-05-03T15:10:52Z</time>
      </trkpt>
      <trkpt lat="45.23808" lon="5.68962">
        <ele>237</ele>
        <time>2012-05-03T15:10:54Z</time>
      </trkpt>
      <trkpt lat="45.23801" lon="5.68961">
        <ele>236</ele>
        <time>2012-05-03T15:10:57Z</time>
      </trkpt>
      <trkpt lat="45.23795" lon="5.68958">
        <ele>233</ele>
        <time>2012-05-03T15:10:58Z</time>
      </trkpt>
      <trkpt lat="45.23787" lon="5.68954">
        <ele>234</ele>
        <time>2012-05-03T15:11:02Z</time>
      </trkpt>
      <trkpt lat="45.23781" lon="5.6895">
        <ele>233</ele>
        <time>2012-05-03T15:11:05Z</time>
      </trkpt>
      <trkpt lat="45.23772" lon="5.6895">
        <ele>233</ele>
        <time>2012-05-03T15:11:07Z</time>
      </trkpt>
      <trkpt lat="45.23764" lon="5.68951">
        <ele>234</ele>
        <time>2012-05-03T15:11:11Z</time>
      </trkpt>
      <trkpt lat="45.23756" lon="5.6895">
        <ele>233</ele>
        <time>2012-05-03T15:11:15Z</time>
      </trkpt>
      <trkpt lat="45.23749" lon="5.6895">
        <ele>232</ele>
        <time>2012-05-03T15:11:19Z</time>
      </trkpt>
      <trkpt lat="45.2374" lon="5.68949">
        <ele>229</ele>
        <time>2012-05-03T15:11:23Z</time>
      </trkpt>
      <trkpt lat="45.23737" lon="5.68949">
        <ele>229</ele>
        <time>2012-05-03T15:11:24Z</time>
      </trkpt>
      <trkpt lat="45.23725" lon="5.68948">
        <ele>225</ele>
        <time>2012-05-03T15:11:29Z</time>
      </trkpt>
      <trkpt lat="45.23718" lon="5.68947">
        <ele>228</ele>
        <time>2012-05-03T15:11:31Z</time>
      </trkpt>
      <trkpt lat="45.23709" lon="5.68947">
        <ele>232</ele>
        <time>2012-05-03T15:11:32Z</time>
      </trkpt>
      <trkpt lat="45.23701" lon="5.68946">
        <ele>231</ele>
        <time>2012-05-03T15:11:35Z</time>
      </trkpt>
      <trkpt lat="45.23693" lon="5.68942">
        <ele>230</ele>
        <time>2012-05-03T15:11:38Z</time>
      </trkpt>
      <trkpt lat="45.23688" lon="5.68937">
        <ele>230</ele>
        <time>2012-05-03T15:11:40Z</time>
      </trkpt>
      <trkpt lat="45.23681" lon="5.68932">
        <ele>232</ele>
        <time>2012-05-03T15:11:43Z</time>
      </trkpt>
      <trkpt lat="45.23674" lon="5.68925">
        <ele>234</ele>
        <time>2012-05-03T15:11:46Z</time>
      </trkpt>
      <trkpt lat="45.23668" lon="5.68918">
        <ele>234</ele>
        <time>2012-05-03T15:11:50Z</time>
      </trkpt>
      <trkpt lat="45.23662" lon="5.68911">
        <ele>234</ele>
        <time>2012-05-03T15:11:52Z</time>
      </trkpt>
      <trkpt lat="45.23656" lon="5.68906">
        <ele>233</ele>
        <time>2012-05-03T15:11:55Z</time>
      </trkpt>
      <trkpt lat="45.23649" lon="5.68899">
        <ele>232</ele>
        <time>2012-05-03T15:11:58Z</time>
      </trkpt>
      <trkpt lat="45.23644" lon="5.68894">
        <ele>232</ele>
        <time>2012-05-03T15:12:01Z</time>
      </trkpt>
      <trkpt lat="45.23639" lon="5.68888">
        <ele>233</ele>
        <time>2012-05-03T15:12:02Z</time>
      </trkpt>
      <trkpt lat="45.23631" lon="5.68882">
        <ele>231</ele>
        <time>2012-05-03T15:12:05Z</time>
      </trkpt>
      <trkpt lat="45.23625" lon="5.68877">
        <ele>231</ele>
        <time>2012-05-03T15:12:07Z</time>
      </trkpt>
      <trkpt lat="45.2362" lon="5.68869">
        <ele>228</ele>
        <time>2012-05-03T15:12:10Z</time>
      </trkpt>
      <trkpt lat="45.23616" lon="5.68864">
        <ele>229</ele>
        <time>2012-05-03T15:12:12Z</time>
      </trkpt>
      <trkpt lat="45.23609" lon="5.68859">
        <ele>229</ele>
        <time>2012-05-03T15:12:15Z</time>
      </trkpt>
      <trkpt lat="45.23602" lon="5.68855">
        <ele>227</ele>
        <time>2012-05-03T15:12:16Z</time>
      </trkpt>
      <trkpt lat="45.23597" lon="5.68852">
        <ele>226</ele>
        <time>2012-05-03T15:12:17Z</time>
      </trkpt>
      <trkpt lat="45.23591" lon="5.68847">
        <ele>226</ele>
        <time>2012-05-03T15:12:19Z</time>
      </trkpt>
      <trkpt lat="45.23586" lon="5.68842">
        <ele>226</ele>
        <time>2012-05-03T15:12:22Z</time>
      </trkpt>
      <trkpt lat="45.23579" lon="5.68836">
        <ele>226</ele>
        <time>2012-05-03T15:12:23Z</time>
      </trkpt>
      <trkpt lat="45.23576" lon="5.68827">
        <ele>224</ele>
        <time>2012-05-03T15:12:27Z</time>
      </trkpt>
      <trkpt lat="45.23574" lon="5.68823">
        <ele>224</ele>
        <time>2012-05-03T15:12:28Z</time>
      </trkpt>
      <trkpt lat="45.23565" lon="5.68815">
        <ele>228</ele>
        <time>2012-05-03T15:12:33Z</time>
      </trkpt>
      <trkpt lat="45.23559" lon="5.68807">
        <ele>227</ele>
        <time>2012-05-03T15:12:34Z</time>
      </trkpt>
      <trkpt lat="45.23552" lon="5.688">
        <ele>221</ele>
        <time>2012-05-03T15:12:38Z</time>
      </trkpt>
      <trkpt lat="45.23546" lon="5.68796">
        <ele>221</ele>
        <time>2012-05-03T15:12:39Z</time>
      </trkpt>
      <trkpt lat="45.2354" lon="5.68792">
        <ele>222</ele>
        <time>2012-05-03T15:12:41Z</time>
      </trkpt>
      <trkpt lat="45.23532" lon="5.68786">
        <ele>222</ele>
        <time>2012-05-03T15:12:44Z</time>
      </trkpt>
      <trkpt lat="45.23527" lon="5.68782">
        <ele>224</ele>
        <time>2012-05-03T15:12:47Z</time>
      </trkpt>
      <trkpt lat="45.2352" lon="5.68775">
        <ele>223</ele>
        <time>2012-05-03T15:12:48Z</time>
      </trkpt>
      <trkpt lat="45.23518" lon="5.68769">
        <ele>224</ele>
        <time>2012-05-03T15:12:51Z</time>
      </trkpt>
      <trkpt lat="45.23513" lon="5.68763">
        <ele>231</ele>
        <time>2012-05-03T15:12:54Z</time>
      </trkpt>
      <trkpt lat="45.23506" lon="5.6876">
        <ele>229</ele>
        <time>2012-05-03T15:12:55Z</time>
      </trkpt>
      <trkpt lat="45.23501" lon="5.68755">
        <ele>227</ele>
        <time>2012-05-03T15:12:56Z</time>
      </trkpt>
      <trkpt lat="45.23494" lon="5.68751">
        <ele>226</ele>
        <time>2012-05-03T15:12:58Z</time>
      </trkpt>
      <trkpt lat="45.23489" lon="5.68748">
        <ele>227</ele>
        <time>2012-05-03T15:13:00Z</time>
      </trkpt>
      <trkpt lat="45.23482" lon="5.68743">
        <ele>227</ele>
        <time>2012-05-03T15:13:02Z</time>
      </trkpt>
      <trkpt lat="45.23475" lon="5.68738">
        <ele>226</ele>
        <time>2012-05-03T15:13:04Z</time>
      </trkpt>
      <trkpt lat="45.23469" lon="5.68732">
        <ele>226</ele>
        <time>2012-05-03T15:13:06Z</time>
      </trkpt>
      <trkpt lat="45.23463" lon="5.68724">
        <ele>225</ele>
        <time>2012-05-03T15:13:08Z</time>
      </trkpt>
      <trkpt lat="45.23456" lon="5.68717">
        <ele>227</ele>
        <time>2012-05-03T15:13:11Z</time>
      </trkpt>
      <trkpt lat="45.23449" lon="5.6871">
        <ele>224</ele>
        <time>2012-05-03T15:13:16Z</time>
      </trkpt>
      <trkpt lat="45.23442" lon="5.68704">
        <ele>224</ele>
        <time>2012-05-03T15:13:21Z</time>
      </trkpt>
      <trkpt lat="45.23434" lon="5.68699">
        <ele>225</ele>
        <time>2012-05-03T15:13:28Z</time>
      </trkpt>
      <trkpt lat="45.23433" lon="5.68699">
        <ele>225</ele>
        <time>2012-05-03T15:13:29Z</time>
      </trkpt>
      <trkpt lat="45.2342" lon="5.68686">
        <ele>221</ele>
        <time>2012-05-03T15:13:38Z</time>
      </trkpt>
      <trkpt lat="45.23413" lon="5.68681">
        <ele>220</ele>
        <time>2012-05-03T15:13:42Z</time>
      </trkpt>
      <trkpt lat="45.23405" lon="5.68676">
        <ele>221</ele>
        <time>2012-05-03T15:13:49Z</time>
      </trkpt>
      <trkpt lat="45.23397" lon="5.6867">
        <ele>221</ele>
        <time>2012-05-03T15:13:52Z</time>
      </trkpt>
      <trkpt lat="45.2339" lon="5.68667">
        <ele>223</ele>
        <time>2012-05-03T15:13:56Z</time>
      </trkpt>
      <trkpt lat="45.23384" lon="5.68659">
        <ele>223</ele>
        <time>2012-05-03T15:14:01Z</time>
      </trkpt>
      <trkpt lat="45.23379" lon="5.68652">
        <ele>226</ele>
        <time>2012-05-03T15:14:03Z</time>
      </trkpt>
      <trkpt lat="45.23375" lon="5.68646">
        <ele>225</ele>
        <time>2012-05-03T15:14:05Z</time>
      </trkpt>
      <trkpt lat="45.23369" lon="5.68639">
        <ele>225</ele>
        <time>2012-05-03T15:14:07Z</time>
      </trkpt>
      <trkpt lat="45.23364" lon="5.68634">
        <ele>226</ele>
        <time>2012-05-03T15:14:09Z</time>
      </trkpt>
      <trkpt lat="45.23359" lon="5.68629">
        <ele>226</ele>
        <time>2012-05-03T15:14:11Z</time>
      </trkpt>
      <trkpt lat="45.23352" lon="5.68622">
        <ele>225</ele>
        <time>2012-05-03T15:14:14Z</time>
      </trkpt>
      <trkpt lat="45.23346" lon="5.68618">
        <ele>225</ele>
        <time>2012-05-03T15:14:16Z</time>
      </trkpt>
      <trkpt lat="45.23339" lon="5.68614">
        <ele>226</ele>
        <time>2012-05-03T15:14:18Z</time>
      </trkpt>
      <trkpt lat="45.23332" lon="5.68608">
        <ele>227</ele>
        <time>2012-05-03T15:14:22Z</time>
      </trkpt>
      <trkpt lat="45.23327" lon="5.68602">
        <ele>226</ele>
        <time>2012-05-03T15:14:23Z</time>
      </trkpt>
      <trkpt lat="45.23324" lon="5.68595">
        <ele>226</ele>
        <time>2012-05-03T15:14:25Z</time>
      </trkpt>
      <trkpt lat="45.23321" lon="5.68588">
        <ele>226</ele>
        <time>2012-05-03T15:14:27Z</time>
      </trkpt>
      <trkpt lat="45.23317" lon="5.68582">
        <ele>225</ele>
        <time>2012-05-03T15:14:29Z</time>
      </trkpt>
      <trkpt lat="45.23314" lon="5.68579">
        <ele>224</ele>
        <time>2012-05-03T15:14:30Z</time>
      </trkpt>
      <trkpt lat="45.23304" lon="5.68572">
        <ele>223</ele>
        <time>2012-05-03T15:14:33Z</time>
      </trkpt>
      <trkpt lat="45.23297" lon="5.68568">
        <ele>223</ele>
        <time>2012-05-03T15:14:36Z</time>
      </trkpt>
      <trkpt lat="45.23291" lon="5.68562">
        <ele>225</ele>
        <time>2012-05-03T15:14:40Z</time>
      </trkpt>
      <trkpt lat="45.23284" lon="5.68558">
        <ele>217</ele>
        <time>2012-05-03T15:14:43Z</time>
      </trkpt>
      <trkpt lat="45.23276" lon="5.68562">
        <ele>212</ele>
        <time>2012-05-03T15:14:47Z</time>
      </trkpt>
      <trkpt lat="45.23272" lon="5.6857">
        <ele>211</ele>
        <time>2012-05-03T15:14:52Z</time>
      </trkpt>
      <trkpt lat="45.23269" lon="5.68582">
        <ele>213</ele>
        <time>2012-05-03T15:14:56Z</time>
      </trkpt>
      <trkpt lat="45.23261" lon="5.68583">
        <ele>212</ele>
        <time>2012-05-03T15:15:01Z</time>
      </trkpt>
      <trkpt lat="45.23256" lon="5.68577">
        <ele>213</ele>
        <time>2012-05-03T15:15:04Z</time>
      </trkpt>
      <trkpt lat="45.2325" lon="5.68568">
        <ele>217</ele>
        <time>2012-05-03T15:15:07Z</time>
      </trkpt>
      <trkpt lat="45.23243" lon="5.68561">
        <ele>220</ele>
        <time>2012-05-03T15:15:10Z</time>
      </trkpt>
      <trkpt lat="45.23236" lon="5.68554">
        <ele>220</ele>
        <time>2012-05-03T15:15:13Z</time>
      </trkpt>
      <trkpt lat="45.2323" lon="5.68547">
        <ele>221</ele>
        <time>2012-05-03T15:15:16Z</time>
      </trkpt>
      <trkpt lat="45.23223" lon="5.68539">
        <ele>221</ele>
        <time>2012-05-03T15:15:20Z</time>
      </trkpt>
      <trkpt lat="45.23218" lon="5.68533">
        <ele>223</ele>
        <time>2012-05-03T15:15:23Z</time>
      </trkpt>
      <trkpt lat="45.23212" lon="5.68529">
        <ele>223</ele>
        <time>2012-05-03T15:15:26Z</time>
      </trkpt>
      <trkpt lat="45.23207" lon="5.68525">
        <ele>224</ele>
        <time>2012-05-03T15:15:27Z</time>
      </trkpt>
      <trkpt lat="45.232" lon="5.6852">
        <ele>224</ele>
        <time>2012-05-03T15:15:30Z</time>
      </trkpt>
      <trkpt lat="45.23196" lon="5.68517">
        <ele>224</ele>
        <time>2012-05-03T15:15:30Z</time>
      </trkpt>
      <trkpt lat="45.23188" lon="5.68511">
        <ele>224</ele>
        <time>2012-05-03T15:15:33Z</time>
      </trkpt>
      <trkpt lat="45.23181" lon="5.68506">
        <ele>222</ele>
        <time>2012-05-03T15:15:35Z</time>
      </trkpt>
      <trkpt lat="45.23174" lon="5.68501">
        <ele>223</ele>
        <time>2012-05-03T15:15:37Z</time>
      </trkpt>
      <trkpt lat="45.23167" lon="5.68495">
        <ele>223</ele>
        <time>2012-05-03T15:15:40Z</time>
      </trkpt>
      <trkpt lat="45.23161" lon="5.68489">
        <ele>223</ele>
        <time>2012-05-03T15:15:43Z</time>
      </trkpt>
      <trkpt lat="45.23155" lon="5.68484">
        <ele>221</ele>
        <time>2012-05-03T15:15:45Z</time>
      </trkpt>
      <trkpt lat="45.23148" lon="5.68478">
        <ele>219</ele>
        <time>2012-05-03T15:15:48Z</time>
      </trkpt>
      <trkpt lat="45.23143" lon="5.68472">
        <ele>219</ele>
        <time>2012-05-03T15:15:51Z</time>
      </trkpt>
      <trkpt lat="45.23138" lon="5.68465">
        <ele>219</ele>
        <time>2012-05-03T15:15:54Z</time>
      </trkpt>
      <trkpt lat="45.23131" lon="5.68461">
        <ele>218</ele>
        <time>2012-05-03T15:15:58Z</time>
      </trkpt>
      <trkpt lat="45.23125" lon="5.68457">
        <ele>218</ele>
        <time>2012-05-03T15:16:00Z</time>
      </trkpt>
      <trkpt lat="45.23118" lon="5.68453">
        <ele>218</ele>
        <time>2012-05-03T15:16:03Z</time>
      </trkpt>
      <trkpt lat="45.23111" lon="5.68458">
        <ele>220</ele>
        <time>2012-05-03T15:16:07Z</time>
      </trkpt>
      <trkpt lat="45.23106" lon="5.68466">
        <ele>219</ele>
        <time>2012-05-03T15:16:08Z</time>
      </trkpt>
      <trkpt lat="45.23103" lon="5.68473">
        <ele>220</ele>
        <time>2012-05-03T15:16:11Z</time>
      </trkpt>
      <trkpt lat="45.23099" lon="5.68481">
        <ele>219</ele>
        <time>2012-05-03T15:16:13Z</time>
      </trkpt>
      <trkpt lat="45.23096" lon="5.68487">
        <ele>220</ele>
        <time>2012-05-03T15:16:15Z</time>
      </trkpt>
      <trkpt lat="45.23091" lon="5.68495">
        <ele>221</ele>
        <time>2012-05-03T15:16:16Z</time>
      </trkpt>
      <trkpt lat="45.23085" lon="5.68504">
        <ele>218</ele>
        <time>2012-05-03T15:16:19Z</time>
      </trkpt>
      <trkpt lat="45.23081" lon="5.6851">
        <ele>219</ele>
        <time>2012-05-03T15:16:21Z</time>
      </trkpt>
      <trkpt lat="45.23074" lon="5.68519">
        <ele>218</ele>
        <time>2012-05-03T15:16:24Z</time>
      </trkpt>
      <trkpt lat="45.2307" lon="5.68526">
        <ele>218</ele>
        <time>2012-05-03T15:16:26Z</time>
      </trkpt>
      <trkpt lat="45.23066" lon="5.68532">
        <ele>218</ele>
        <time>2012-05-03T15:16:28Z</time>
      </trkpt>
      <trkpt lat="45.23061" lon="5.68542">
        <ele>218</ele>
        <time>2012-05-03T15:16:31Z</time>
      </trkpt>
      <trkpt lat="45.23059" lon="5.68545">
        <ele>218</ele>
        <time>2012-05-03T15:16:33Z</time>
      </trkpt>
      <trkpt lat="45.23051" lon="5.68555">
        <ele>217</ele>
        <time>2012-05-03T15:16:37Z</time>
      </trkpt>
      <trkpt lat="45.23046" lon="5.68562">
        <ele>217</ele>
        <time>2012-05-03T15:16:39Z</time>
      </trkpt>
      <trkpt lat="45.2304" lon="5.68571">
        <ele>218</ele>
        <time>2012-05-03T15:16:42Z</time>
      </trkpt>
      <trkpt lat="45.23035" lon="5.68578">
        <ele>218</ele>
        <time>2012-05-03T15:16:45Z</time>
      </trkpt>
      <trkpt lat="45.23031" lon="5.68587">
        <ele>219</ele>
        <time>2012-05-03T15:16:47Z</time>
      </trkpt>
      <trkpt lat="45.23025" lon="5.68594">
        <ele>217</ele>
        <time>2012-05-03T15:16:50Z</time>
      </trkpt>
      <trkpt lat="45.2302" lon="5.686">
        <ele>217</ele>
        <time>2012-05-03T15:16:52Z</time>
      </trkpt>
      <trkpt lat="45.23015" lon="5.68606">
        <ele>215</ele>
        <time>2012-05-03T15:16:54Z</time>
      </trkpt>
      <trkpt lat="45.23009" lon="5.68613">
        <ele>216</ele>
        <time>2012-05-03T15:16:56Z</time>
      </trkpt>
      <trkpt lat="45.23003" lon="5.68622">
        <ele>219</ele>
        <time>2012-05-03T15:17:00Z</time>
      </trkpt>
      <trkpt lat="45.23003" lon="5.68633">
        <ele>221</ele>
        <time>2012-05-03T15:17:08Z</time>
      </trkpt>
      <trkpt lat="45.23002" lon="5.68646">
        <ele>220</ele>
        <time>2012-05-03T15:17:16Z</time>
      </trkpt>
      <trkpt lat="45.22998" lon="5.68654">
        <ele>218</ele>
        <time>2012-05-03T15:17:22Z</time>
      </trkpt>
      <trkpt lat="45.22991" lon="5.68662">
        <ele>215</ele>
        <time>2012-05-03T15:17:26Z</time>
      </trkpt>
      <trkpt lat="45.22986" lon="5.68673">
        <ele>215</ele>
        <time>2012-05-03T15:17:30Z</time>
      </trkpt>
      <trkpt lat="45.22985" lon="5.68683">
        <ele>210</ele>
        <time>2012-05-03T15:17:31Z</time>
      </trkpt>
      <trkpt lat="45.22983" lon="5.68691">
        <ele>209</ele>
        <time>2012-05-03T15:17:33Z</time>
      </trkpt>
      <trkpt lat="45.22982" lon="5.68696">
        <ele>211</ele>
        <time>2012-05-03T15:17:34Z</time>
      </trkpt>
      <trkpt lat="45.22979" lon="5.6871">
        <ele>210</ele>
        <time>2012-05-03T15:17:38Z</time>
      </trkpt>
      <trkpt lat="45.22977" lon="5.6872">
        <ele>211</ele>
        <time>2012-05-03T15:17:39Z</time>
      </trkpt>
      <trkpt lat="45.22976" lon="5.68728">
        <ele>210</ele>
        <time>2012-05-03T15:17:41Z</time>
      </trkpt>
      <trkpt lat="45.22973" lon="5.68741">
        <ele>208</ele>
        <time>2012-05-03T15:17:44Z</time>
      </trkpt>
      <trkpt lat="45.2297" lon="5.6875">
        <ele>207</ele>
        <time>2012-05-03T15:17:46Z</time>
      </trkpt>
      <trkpt lat="45.22966" lon="5.68758">
        <ele>207</ele>
        <time>2012-05-03T15:17:49Z</time>
      </trkpt>
      <trkpt lat="45.22962" lon="5.68765">
        <ele>210</ele>
        <time>2012-05-03T15:17:51Z</time>
      </trkpt>
      <trkpt lat="45.22957" lon="5.68771">
        <ele>208</ele>
        <time>2012-05-03T15:17:52Z</time>
      </trkpt>
      <trkpt lat="45.22952" lon="5.68779">
        <ele>209</ele>
        <time>2012-05-03T15:17:54Z</time>
      </trkpt>
      <trkpt lat="45.22947" lon="5.68786">
        <ele>210</ele>
        <time>2012-05-03T15:17:56Z</time>
      </trkpt>
      <trkpt lat="45.22944" lon="5.68795">
        <ele>212</ele>
        <time>2012-05-03T15:17:58Z</time>
      </trkpt>
      <trkpt lat="45.22941" lon="5.68803">
        <ele>211</ele>
        <time>2012-05-03T15:18:00Z</time>
      </trkpt>
      <trkpt lat="45.22937" lon="5.68813">
        <ele>212</ele>
        <time>2012-05-03T15:18:03Z</time>
      </trkpt>
      <trkpt lat="45.2293" lon="5.68821">
        <ele>212</ele>
        <time>2012-05-03T15:18:07Z</time>
      </trkpt>
      <trkpt lat="45.22925" lon="5.68827">
        <ele>213</ele>
        <time>2012-05-03T15:18:08Z</time>
      </trkpt>
      <trkpt lat="45.2292" lon="5.68836">
        <ele>213</ele>
        <time>2012-05-03T15:18:10Z</time>
      </trkpt>
      <trkpt lat="45.22915" lon="5.68843">
        <ele>212</ele>
        <time>2012-05-03T15:18:12Z</time>
      </trkpt>
      <trkpt lat="45.22911" lon="5.68853">
        <ele>211</ele>
        <time>2012-05-03T15:18:15Z</time>
      </trkpt>
      <trkpt lat="45.22907" lon="5.68864">
        <ele>210</ele>
        <time>2012-05-03T15:18:19Z</time>
      </trkpt>
      <trkpt lat="45.22898" lon="5.68868">
        <ele>210</ele>
        <time>2012-05-03T15:18:26Z</time>
      </trkpt>
      <trkpt lat="45.22893" lon="5.6886">
        <ele>212</ele>
        <time>2012-05-03T15:18:28Z</time>
      </trkpt>
      <trkpt lat="45.2289" lon="5.68855">
        <ele>212</ele>
        <time>2012-05-03T15:18:31Z</time>
      </trkpt>
      <trkpt lat="45.22885" lon="5.68846">
        <ele>213</ele>
        <time>2012-05-03T15:18:33Z</time>
      </trkpt>
      <trkpt lat="45.22878" lon="5.68837">
        <ele>210</ele>
        <time>2012-05-03T15:18:35Z</time>
      </trkpt>
      <trkpt lat="45.22877" lon="5.68836">
        <ele>210</ele>
        <time>2012-05-03T15:18:36Z</time>
      </trkpt>
      <trkpt lat="45.22866" lon="5.68821">
        <ele>206</ele>
        <time>2012-05-03T15:18:48Z</time>
      </trkpt>
      <trkpt lat="45.22865" lon="5.68821">
        <ele>206</ele>
        <time>2012-05-03T15:18:49Z</time>
      </trkpt>
      <trkpt lat="45.22865" lon="5.68821">
        <ele>206</ele>
        <time>2012-05-03T15:18:49Z</time>
      </trkpt>
      <trkpt lat="45.22833" lon="5.68758">
        <ele>209</ele>
        <time>2012-05-03T15:20:12Z</time>
      </trkpt>
      <trkpt lat="45.22859" lon="5.68776">
        <ele>208</ele>
        <time>2012-05-03T17:55:23Z</time>
      </trkpt>
    </trkseg>
  </trk>
</gpx>